<?xml version="1.0" encoding="UTF-8" standalone="no" ?>
<gpx xmlns="http://www.topografix.com/GPX/1/1" xmlns:xsi="http://www.w3.org/2001/XMLSchema-instance" xsi:schemaLocation="http://www.topografix.com/GPX/1/1 http://www.topografix.com/GPX/1/1/gpx.xsd" version="1.1" creator="VisuGPX - https://www.visugpx.com">
  <metadata>
    <name>Villenes sur Seine  MA-Rando-2020-05-16</name>
  </metadata>
  <trk>
    <name><![CDATA[MA-Rando-2020-05-16-173151]]></name>
    <trkseg>
      <trkpt lat="48.93939" lon="1.99919">
        <ele>15</ele>
        <time>2020-05-16T12:24:29Z</time>
      </trkpt>
      <trkpt lat="48.93947" lon="1.99913">
        <ele>15</ele>
        <time>2020-05-16T12:25:24Z</time>
      </trkpt>
      <trkpt lat="48.93956" lon="1.99911">
        <ele>15</ele>
        <time>2020-05-16T12:25:34Z</time>
      </trkpt>
      <trkpt lat="48.93965" lon="1.99908">
        <ele>15</ele>
        <time>2020-05-16T12:25:40Z</time>
      </trkpt>
      <trkpt lat="48.93976" lon="1.99907">
        <ele>15</ele>
        <time>2020-05-16T12:25:48Z</time>
      </trkpt>
      <trkpt lat="48.93985" lon="1.999">
        <ele>15</ele>
        <time>2020-05-16T12:25:54Z</time>
      </trkpt>
      <trkpt lat="48.93992" lon="1.99892">
        <ele>16</ele>
        <time>2020-05-16T12:25:59Z</time>
      </trkpt>
      <trkpt lat="48.93998" lon="1.99881">
        <ele>16</ele>
        <time>2020-05-16T12:26:07Z</time>
      </trkpt>
      <trkpt lat="48.94007" lon="1.99872">
        <ele>16</ele>
        <time>2020-05-16T12:26:14Z</time>
      </trkpt>
      <trkpt lat="48.94015" lon="1.99863">
        <ele>17</ele>
        <time>2020-05-16T12:26:21Z</time>
      </trkpt>
      <trkpt lat="48.94023" lon="1.99856">
        <ele>17</ele>
        <time>2020-05-16T12:26:30Z</time>
      </trkpt>
      <trkpt lat="48.94031" lon="1.99848">
        <ele>17</ele>
        <time>2020-05-16T12:26:37Z</time>
      </trkpt>
      <trkpt lat="48.9404" lon="1.99842">
        <ele>17</ele>
        <time>2020-05-16T12:26:44Z</time>
      </trkpt>
      <trkpt lat="48.94049" lon="1.99837">
        <ele>17</ele>
        <time>2020-05-16T12:26:51Z</time>
      </trkpt>
      <trkpt lat="48.94059" lon="1.99832">
        <ele>18</ele>
        <time>2020-05-16T12:26:59Z</time>
      </trkpt>
      <trkpt lat="48.94068" lon="1.99826">
        <ele>18</ele>
        <time>2020-05-16T12:27:06Z</time>
      </trkpt>
      <trkpt lat="48.94077" lon="1.99824">
        <ele>18</ele>
        <time>2020-05-16T12:27:13Z</time>
      </trkpt>
      <trkpt lat="48.94086" lon="1.99819">
        <ele>18</ele>
        <time>2020-05-16T12:27:20Z</time>
      </trkpt>
      <trkpt lat="48.94095" lon="1.99818">
        <ele>18</ele>
        <time>2020-05-16T12:27:26Z</time>
      </trkpt>
      <trkpt lat="48.94104" lon="1.99814">
        <ele>18</ele>
        <time>2020-05-16T12:27:33Z</time>
      </trkpt>
      <trkpt lat="48.94113" lon="1.9981">
        <ele>19</ele>
        <time>2020-05-16T12:27:42Z</time>
      </trkpt>
      <trkpt lat="48.94123" lon="1.99808">
        <ele>21</ele>
        <time>2020-05-16T12:27:51Z</time>
      </trkpt>
      <trkpt lat="48.94132" lon="1.99802">
        <ele>22</ele>
        <time>2020-05-16T12:27:59Z</time>
      </trkpt>
      <trkpt lat="48.94139" lon="1.99791">
        <ele>22</ele>
        <time>2020-05-16T12:28:07Z</time>
      </trkpt>
      <trkpt lat="48.94147" lon="1.99801">
        <ele>22</ele>
        <time>2020-05-16T12:28:13Z</time>
      </trkpt>
      <trkpt lat="48.94156" lon="1.99799">
        <ele>22</ele>
        <time>2020-05-16T12:28:18Z</time>
      </trkpt>
      <trkpt lat="48.94166" lon="1.998">
        <ele>23</ele>
        <time>2020-05-16T12:28:25Z</time>
      </trkpt>
      <trkpt lat="48.94176" lon="1.99801">
        <ele>23</ele>
        <time>2020-05-16T12:28:34Z</time>
      </trkpt>
      <trkpt lat="48.94185" lon="1.99796">
        <ele>24</ele>
        <time>2020-05-16T12:28:40Z</time>
      </trkpt>
      <trkpt lat="48.94192" lon="1.99788">
        <ele>24</ele>
        <time>2020-05-16T12:28:45Z</time>
      </trkpt>
      <trkpt lat="48.94201" lon="1.99792">
        <ele>24</ele>
        <time>2020-05-16T12:28:50Z</time>
      </trkpt>
      <trkpt lat="48.94211" lon="1.99793">
        <ele>25</ele>
        <time>2020-05-16T12:28:58Z</time>
      </trkpt>
      <trkpt lat="48.9422" lon="1.99792">
        <ele>25</ele>
        <time>2020-05-16T12:29:06Z</time>
      </trkpt>
      <trkpt lat="48.94229" lon="1.99796">
        <ele>25</ele>
        <time>2020-05-16T12:29:13Z</time>
      </trkpt>
      <trkpt lat="48.94238" lon="1.99802">
        <ele>25</ele>
        <time>2020-05-16T12:29:20Z</time>
      </trkpt>
      <trkpt lat="48.94247" lon="1.99809">
        <ele>25</ele>
        <time>2020-05-16T12:29:26Z</time>
      </trkpt>
      <trkpt lat="48.94257" lon="1.99815">
        <ele>26</ele>
        <time>2020-05-16T12:29:33Z</time>
      </trkpt>
      <trkpt lat="48.94266" lon="1.99821">
        <ele>26</ele>
        <time>2020-05-16T12:29:39Z</time>
      </trkpt>
      <trkpt lat="48.94276" lon="1.99822">
        <ele>27</ele>
        <time>2020-05-16T12:29:46Z</time>
      </trkpt>
      <trkpt lat="48.94286" lon="1.99822">
        <ele>28</ele>
        <time>2020-05-16T12:29:51Z</time>
      </trkpt>
      <trkpt lat="48.94296" lon="1.99823">
        <ele>28</ele>
        <time>2020-05-16T12:29:59Z</time>
      </trkpt>
      <trkpt lat="48.94306" lon="1.99822">
        <ele>28</ele>
        <time>2020-05-16T12:30:06Z</time>
      </trkpt>
      <trkpt lat="48.94316" lon="1.99825">
        <ele>28</ele>
        <time>2020-05-16T12:30:15Z</time>
      </trkpt>
      <trkpt lat="48.94326" lon="1.99826">
        <ele>28</ele>
        <time>2020-05-16T12:30:22Z</time>
      </trkpt>
      <trkpt lat="48.94336" lon="1.99826">
        <ele>27</ele>
        <time>2020-05-16T12:30:30Z</time>
      </trkpt>
      <trkpt lat="48.94345" lon="1.99822">
        <ele>27</ele>
        <time>2020-05-16T12:30:37Z</time>
      </trkpt>
      <trkpt lat="48.94355" lon="1.99822">
        <ele>26</ele>
        <time>2020-05-16T12:30:44Z</time>
      </trkpt>
      <trkpt lat="48.94364" lon="1.99823">
        <ele>26</ele>
        <time>2020-05-16T12:30:51Z</time>
      </trkpt>
      <trkpt lat="48.94373" lon="1.9982">
        <ele>25</ele>
        <time>2020-05-16T12:30:58Z</time>
      </trkpt>
      <trkpt lat="48.94382" lon="1.99816">
        <ele>25</ele>
        <time>2020-05-16T12:31:04Z</time>
      </trkpt>
      <trkpt lat="48.94392" lon="1.99816">
        <ele>25</ele>
        <time>2020-05-16T12:31:10Z</time>
      </trkpt>
      <trkpt lat="48.94402" lon="1.99814">
        <ele>25</ele>
        <time>2020-05-16T12:31:19Z</time>
      </trkpt>
      <trkpt lat="48.94411" lon="1.99814">
        <ele>25</ele>
        <time>2020-05-16T12:31:26Z</time>
      </trkpt>
      <trkpt lat="48.94421" lon="1.99813">
        <ele>24</ele>
        <time>2020-05-16T12:31:32Z</time>
      </trkpt>
      <trkpt lat="48.9443" lon="1.9981">
        <ele>23</ele>
        <time>2020-05-16T12:31:41Z</time>
      </trkpt>
      <trkpt lat="48.9444" lon="1.99808">
        <ele>22</ele>
        <time>2020-05-16T12:31:48Z</time>
      </trkpt>
      <trkpt lat="48.9445" lon="1.99808">
        <ele>22</ele>
        <time>2020-05-16T12:31:56Z</time>
      </trkpt>
      <trkpt lat="48.9446" lon="1.99806">
        <ele>22</ele>
        <time>2020-05-16T12:32:03Z</time>
      </trkpt>
      <trkpt lat="48.94469" lon="1.998">
        <ele>22</ele>
        <time>2020-05-16T12:32:10Z</time>
      </trkpt>
      <trkpt lat="48.94479" lon="1.99801">
        <ele>22</ele>
        <time>2020-05-16T12:32:16Z</time>
      </trkpt>
      <trkpt lat="48.94489" lon="1.99799">
        <ele>22</ele>
        <time>2020-05-16T12:32:23Z</time>
      </trkpt>
      <trkpt lat="48.94499" lon="1.99797">
        <ele>22</ele>
        <time>2020-05-16T12:32:31Z</time>
      </trkpt>
      <trkpt lat="48.94508" lon="1.99796">
        <ele>22</ele>
        <time>2020-05-16T12:32:39Z</time>
      </trkpt>
      <trkpt lat="48.94518" lon="1.99794">
        <ele>22</ele>
        <time>2020-05-16T12:32:45Z</time>
      </trkpt>
      <trkpt lat="48.94527" lon="1.99792">
        <ele>22</ele>
        <time>2020-05-16T12:32:52Z</time>
      </trkpt>
      <trkpt lat="48.94536" lon="1.9979">
        <ele>22</ele>
        <time>2020-05-16T12:32:59Z</time>
      </trkpt>
      <trkpt lat="48.94546" lon="1.99792">
        <ele>22</ele>
        <time>2020-05-16T12:33:06Z</time>
      </trkpt>
      <trkpt lat="48.94555" lon="1.99787">
        <ele>22</ele>
        <time>2020-05-16T12:33:13Z</time>
      </trkpt>
      <trkpt lat="48.94564" lon="1.99783">
        <ele>21</ele>
        <time>2020-05-16T12:33:19Z</time>
      </trkpt>
      <trkpt lat="48.94573" lon="1.99779">
        <ele>21</ele>
        <time>2020-05-16T12:33:28Z</time>
      </trkpt>
      <trkpt lat="48.94582" lon="1.99779">
        <ele>20</ele>
        <time>2020-05-16T12:33:37Z</time>
      </trkpt>
      <trkpt lat="48.94591" lon="1.99779">
        <ele>19</ele>
        <time>2020-05-16T12:33:42Z</time>
      </trkpt>
      <trkpt lat="48.94601" lon="1.99777">
        <ele>19</ele>
        <time>2020-05-16T12:33:47Z</time>
      </trkpt>
      <trkpt lat="48.94611" lon="1.99774">
        <ele>19</ele>
        <time>2020-05-16T12:33:53Z</time>
      </trkpt>
      <trkpt lat="48.9462" lon="1.99775">
        <ele>18</ele>
        <time>2020-05-16T12:34:00Z</time>
      </trkpt>
      <trkpt lat="48.94629" lon="1.99772">
        <ele>18</ele>
        <time>2020-05-16T12:34:08Z</time>
      </trkpt>
      <trkpt lat="48.94638" lon="1.9977">
        <ele>17</ele>
        <time>2020-05-16T12:34:15Z</time>
      </trkpt>
      <trkpt lat="48.94648" lon="1.99767">
        <ele>17</ele>
        <time>2020-05-16T12:34:23Z</time>
      </trkpt>
      <trkpt lat="48.94658" lon="1.99764">
        <ele>17</ele>
        <time>2020-05-16T12:34:30Z</time>
      </trkpt>
      <trkpt lat="48.94668" lon="1.9976">
        <ele>16</ele>
        <time>2020-05-16T12:34:39Z</time>
      </trkpt>
      <trkpt lat="48.94677" lon="1.99756">
        <ele>16</ele>
        <time>2020-05-16T12:34:46Z</time>
      </trkpt>
      <trkpt lat="48.94688" lon="1.99755">
        <ele>15</ele>
        <time>2020-05-16T12:34:52Z</time>
      </trkpt>
      <trkpt lat="48.94697" lon="1.99753">
        <ele>15</ele>
        <time>2020-05-16T12:34:58Z</time>
      </trkpt>
      <trkpt lat="48.94706" lon="1.99754">
        <ele>14</ele>
        <time>2020-05-16T12:35:04Z</time>
      </trkpt>
      <trkpt lat="48.94716" lon="1.99752">
        <ele>14</ele>
        <time>2020-05-16T12:35:12Z</time>
      </trkpt>
      <trkpt lat="48.94726" lon="1.99748">
        <ele>15</ele>
        <time>2020-05-16T12:35:19Z</time>
      </trkpt>
      <trkpt lat="48.94735" lon="1.99746">
        <ele>15</ele>
        <time>2020-05-16T12:35:28Z</time>
      </trkpt>
      <trkpt lat="48.94746" lon="1.99744">
        <ele>15</ele>
        <time>2020-05-16T12:35:34Z</time>
      </trkpt>
      <trkpt lat="48.94756" lon="1.99741">
        <ele>16</ele>
        <time>2020-05-16T12:35:41Z</time>
      </trkpt>
      <trkpt lat="48.94765" lon="1.99737">
        <ele>16</ele>
        <time>2020-05-16T12:35:49Z</time>
      </trkpt>
      <trkpt lat="48.94775" lon="1.99737">
        <ele>16</ele>
        <time>2020-05-16T12:35:55Z</time>
      </trkpt>
      <trkpt lat="48.94784" lon="1.99733">
        <ele>17</ele>
        <time>2020-05-16T12:36:03Z</time>
      </trkpt>
      <trkpt lat="48.94794" lon="1.99735">
        <ele>16</ele>
        <time>2020-05-16T12:36:10Z</time>
      </trkpt>
      <trkpt lat="48.94804" lon="1.99731">
        <ele>16</ele>
        <time>2020-05-16T12:36:17Z</time>
      </trkpt>
      <trkpt lat="48.94814" lon="1.99733">
        <ele>16</ele>
        <time>2020-05-16T12:36:22Z</time>
      </trkpt>
      <trkpt lat="48.94824" lon="1.99732">
        <ele>15</ele>
        <time>2020-05-16T12:36:30Z</time>
      </trkpt>
      <trkpt lat="48.94834" lon="1.99731">
        <ele>14</ele>
        <time>2020-05-16T12:36:36Z</time>
      </trkpt>
      <trkpt lat="48.94843" lon="1.9973">
        <ele>13</ele>
        <time>2020-05-16T12:36:43Z</time>
      </trkpt>
      <trkpt lat="48.94852" lon="1.99728">
        <ele>13</ele>
        <time>2020-05-16T12:36:50Z</time>
      </trkpt>
      <trkpt lat="48.94861" lon="1.99728">
        <ele>13</ele>
        <time>2020-05-16T12:36:57Z</time>
      </trkpt>
      <trkpt lat="48.94871" lon="1.99724">
        <ele>13</ele>
        <time>2020-05-16T12:37:04Z</time>
      </trkpt>
      <trkpt lat="48.94881" lon="1.99727">
        <ele>14</ele>
        <time>2020-05-16T12:37:10Z</time>
      </trkpt>
      <trkpt lat="48.94891" lon="1.99729">
        <ele>14</ele>
        <time>2020-05-16T12:37:18Z</time>
      </trkpt>
      <trkpt lat="48.94901" lon="1.99728">
        <ele>15</ele>
        <time>2020-05-16T12:37:25Z</time>
      </trkpt>
      <trkpt lat="48.9491" lon="1.9973">
        <ele>15</ele>
        <time>2020-05-16T12:37:31Z</time>
      </trkpt>
      <trkpt lat="48.9492" lon="1.9973">
        <ele>15</ele>
        <time>2020-05-16T12:37:37Z</time>
      </trkpt>
      <trkpt lat="48.9493" lon="1.99728">
        <ele>16</ele>
        <time>2020-05-16T12:37:44Z</time>
      </trkpt>
      <trkpt lat="48.94939" lon="1.99728">
        <ele>16</ele>
        <time>2020-05-16T12:37:51Z</time>
      </trkpt>
      <trkpt lat="48.94949" lon="1.99729">
        <ele>16</ele>
        <time>2020-05-16T12:37:58Z</time>
      </trkpt>
      <trkpt lat="48.94959" lon="1.99727">
        <ele>15</ele>
        <time>2020-05-16T12:38:06Z</time>
      </trkpt>
      <trkpt lat="48.94969" lon="1.99727">
        <ele>15</ele>
        <time>2020-05-16T12:38:13Z</time>
      </trkpt>
      <trkpt lat="48.94978" lon="1.99725">
        <ele>14</ele>
        <time>2020-05-16T12:38:21Z</time>
      </trkpt>
      <trkpt lat="48.94988" lon="1.99724">
        <ele>14</ele>
        <time>2020-05-16T12:38:27Z</time>
      </trkpt>
      <trkpt lat="48.94998" lon="1.99724">
        <ele>13</ele>
        <time>2020-05-16T12:38:34Z</time>
      </trkpt>
      <trkpt lat="48.95007" lon="1.99723">
        <ele>13</ele>
        <time>2020-05-16T12:38:40Z</time>
      </trkpt>
      <trkpt lat="48.95016" lon="1.99721">
        <ele>13</ele>
        <time>2020-05-16T12:38:47Z</time>
      </trkpt>
      <trkpt lat="48.95025" lon="1.99718">
        <ele>13</ele>
        <time>2020-05-16T12:38:53Z</time>
      </trkpt>
      <trkpt lat="48.95035" lon="1.99715">
        <ele>13</ele>
        <time>2020-05-16T12:39:02Z</time>
      </trkpt>
      <trkpt lat="48.95046" lon="1.99712">
        <ele>13</ele>
        <time>2020-05-16T12:39:09Z</time>
      </trkpt>
      <trkpt lat="48.95055" lon="1.99709">
        <ele>13</ele>
        <time>2020-05-16T12:39:15Z</time>
      </trkpt>
      <trkpt lat="48.95065" lon="1.99708">
        <ele>13</ele>
        <time>2020-05-16T12:39:23Z</time>
      </trkpt>
      <trkpt lat="48.95073" lon="1.99702">
        <ele>13</ele>
        <time>2020-05-16T12:39:30Z</time>
      </trkpt>
      <trkpt lat="48.95083" lon="1.99696">
        <ele>14</ele>
        <time>2020-05-16T12:39:35Z</time>
      </trkpt>
      <trkpt lat="48.95091" lon="1.9969">
        <ele>14</ele>
        <time>2020-05-16T12:39:43Z</time>
      </trkpt>
      <trkpt lat="48.951" lon="1.99682">
        <ele>14</ele>
        <time>2020-05-16T12:39:49Z</time>
      </trkpt>
      <trkpt lat="48.95109" lon="1.99677">
        <ele>14</ele>
        <time>2020-05-16T12:39:56Z</time>
      </trkpt>
      <trkpt lat="48.95119" lon="1.99673">
        <ele>15</ele>
        <time>2020-05-16T12:40:04Z</time>
      </trkpt>
      <trkpt lat="48.95129" lon="1.99668">
        <ele>15</ele>
        <time>2020-05-16T12:40:11Z</time>
      </trkpt>
      <trkpt lat="48.95139" lon="1.99664">
        <ele>15</ele>
        <time>2020-05-16T12:40:18Z</time>
      </trkpt>
      <trkpt lat="48.95149" lon="1.9966">
        <ele>15</ele>
        <time>2020-05-16T12:40:26Z</time>
      </trkpt>
      <trkpt lat="48.95158" lon="1.99655">
        <ele>15</ele>
        <time>2020-05-16T12:40:32Z</time>
      </trkpt>
      <trkpt lat="48.95167" lon="1.99651">
        <ele>15</ele>
        <time>2020-05-16T12:40:40Z</time>
      </trkpt>
      <trkpt lat="48.95176" lon="1.99645">
        <ele>15</ele>
        <time>2020-05-16T12:40:47Z</time>
      </trkpt>
      <trkpt lat="48.95184" lon="1.99639">
        <ele>16</ele>
        <time>2020-05-16T12:40:54Z</time>
      </trkpt>
      <trkpt lat="48.95194" lon="1.99638">
        <ele>16</ele>
        <time>2020-05-16T12:41:03Z</time>
      </trkpt>
      <trkpt lat="48.95202" lon="1.9963">
        <ele>17</ele>
        <time>2020-05-16T12:41:11Z</time>
      </trkpt>
      <trkpt lat="48.95203" lon="1.99615">
        <ele>18</ele>
        <time>2020-05-16T12:41:20Z</time>
      </trkpt>
      <trkpt lat="48.95201" lon="1.996">
        <ele>20</ele>
        <time>2020-05-16T12:41:27Z</time>
      </trkpt>
      <trkpt lat="48.952" lon="1.99586">
        <ele>20</ele>
        <time>2020-05-16T12:41:35Z</time>
      </trkpt>
      <trkpt lat="48.95198" lon="1.99571">
        <ele>22</ele>
        <time>2020-05-16T12:41:43Z</time>
      </trkpt>
      <trkpt lat="48.95198" lon="1.99556">
        <ele>23</ele>
        <time>2020-05-16T12:41:49Z</time>
      </trkpt>
      <trkpt lat="48.95197" lon="1.9954">
        <ele>23</ele>
        <time>2020-05-16T12:41:56Z</time>
      </trkpt>
      <trkpt lat="48.95197" lon="1.99525">
        <ele>24</ele>
        <time>2020-05-16T12:42:06Z</time>
      </trkpt>
      <trkpt lat="48.95197" lon="1.99511">
        <ele>25</ele>
        <time>2020-05-16T12:42:15Z</time>
      </trkpt>
      <trkpt lat="48.95199" lon="1.99495">
        <ele>26</ele>
        <time>2020-05-16T12:42:23Z</time>
      </trkpt>
      <trkpt lat="48.95205" lon="1.99484">
        <ele>28</ele>
        <time>2020-05-16T12:43:28Z</time>
      </trkpt>
      <trkpt lat="48.95215" lon="1.99481">
        <ele>29</ele>
        <time>2020-05-16T12:43:35Z</time>
      </trkpt>
      <trkpt lat="48.95225" lon="1.99479">
        <ele>30</ele>
        <time>2020-05-16T12:43:42Z</time>
      </trkpt>
      <trkpt lat="48.95233" lon="1.99474">
        <ele>31</ele>
        <time>2020-05-16T12:43:49Z</time>
      </trkpt>
      <trkpt lat="48.95242" lon="1.99472">
        <ele>32</ele>
        <time>2020-05-16T12:43:55Z</time>
      </trkpt>
      <trkpt lat="48.95253" lon="1.99471">
        <ele>33</ele>
        <time>2020-05-16T12:44:00Z</time>
      </trkpt>
      <trkpt lat="48.95262" lon="1.99468">
        <ele>34</ele>
        <time>2020-05-16T12:44:09Z</time>
      </trkpt>
      <trkpt lat="48.95272" lon="1.9947">
        <ele>35</ele>
        <time>2020-05-16T12:44:17Z</time>
      </trkpt>
      <trkpt lat="48.95281" lon="1.99471">
        <ele>36</ele>
        <time>2020-05-16T12:44:23Z</time>
      </trkpt>
      <trkpt lat="48.95291" lon="1.99469">
        <ele>37</ele>
        <time>2020-05-16T12:44:30Z</time>
      </trkpt>
      <trkpt lat="48.953" lon="1.99466">
        <ele>37</ele>
        <time>2020-05-16T12:44:39Z</time>
      </trkpt>
      <trkpt lat="48.95308" lon="1.99462">
        <ele>37</ele>
        <time>2020-05-16T12:44:48Z</time>
      </trkpt>
      <trkpt lat="48.95318" lon="1.99466">
        <ele>38</ele>
        <time>2020-05-16T12:44:53Z</time>
      </trkpt>
      <trkpt lat="48.95315" lon="1.99482">
        <ele>41</ele>
        <time>2020-05-16T12:45:24Z</time>
      </trkpt>
      <trkpt lat="48.95325" lon="1.99479">
        <ele>42</ele>
        <time>2020-05-16T12:45:35Z</time>
      </trkpt>
      <trkpt lat="48.95321" lon="1.99492">
        <ele>37</ele>
        <time>2020-05-16T12:46:14Z</time>
      </trkpt>
      <trkpt lat="48.95323" lon="1.99506">
        <ele>36</ele>
        <time>2020-05-16T12:46:22Z</time>
      </trkpt>
      <trkpt lat="48.95325" lon="1.9952">
        <ele>35</ele>
        <time>2020-05-16T12:46:33Z</time>
      </trkpt>
      <trkpt lat="48.95325" lon="1.99535">
        <ele>33</ele>
        <time>2020-05-16T12:46:44Z</time>
      </trkpt>
      <trkpt lat="48.95329" lon="1.9955">
        <ele>29</ele>
        <time>2020-05-16T12:46:59Z</time>
      </trkpt>
      <trkpt lat="48.95334" lon="1.99562">
        <ele>26</ele>
        <time>2020-05-16T12:47:09Z</time>
      </trkpt>
      <trkpt lat="48.95337" lon="1.99578">
        <ele>24</ele>
        <time>2020-05-16T12:47:15Z</time>
      </trkpt>
      <trkpt lat="48.95342" lon="1.99592">
        <ele>24</ele>
        <time>2020-05-16T12:47:25Z</time>
      </trkpt>
      <trkpt lat="48.9535" lon="1.99604">
        <ele>23</ele>
        <time>2020-05-16T12:47:31Z</time>
      </trkpt>
      <trkpt lat="48.95352" lon="1.99618">
        <ele>22</ele>
        <time>2020-05-16T12:47:41Z</time>
      </trkpt>
      <trkpt lat="48.95344" lon="1.99626">
        <ele>22</ele>
        <time>2020-05-16T12:47:52Z</time>
      </trkpt>
      <trkpt lat="48.95346" lon="1.9964">
        <ele>21</ele>
        <time>2020-05-16T12:47:58Z</time>
      </trkpt>
      <trkpt lat="48.95349" lon="1.99654">
        <ele>21</ele>
        <time>2020-05-16T12:48:05Z</time>
      </trkpt>
      <trkpt lat="48.95345" lon="1.99668">
        <ele>21</ele>
        <time>2020-05-16T12:48:08Z</time>
      </trkpt>
      <trkpt lat="48.95344" lon="1.99685">
        <ele>21</ele>
        <time>2020-05-16T12:48:20Z</time>
      </trkpt>
      <trkpt lat="48.95344" lon="1.99699">
        <ele>21</ele>
        <time>2020-05-16T12:48:24Z</time>
      </trkpt>
      <trkpt lat="48.95353" lon="1.997">
        <ele>21</ele>
        <time>2020-05-16T12:48:30Z</time>
      </trkpt>
      <trkpt lat="48.95362" lon="1.99704">
        <ele>21</ele>
        <time>2020-05-16T12:48:36Z</time>
      </trkpt>
      <trkpt lat="48.95372" lon="1.99704">
        <ele>20</ele>
        <time>2020-05-16T12:48:43Z</time>
      </trkpt>
      <trkpt lat="48.95382" lon="1.99706">
        <ele>19</ele>
        <time>2020-05-16T12:48:50Z</time>
      </trkpt>
      <trkpt lat="48.95391" lon="1.99711">
        <ele>19</ele>
        <time>2020-05-16T12:48:56Z</time>
      </trkpt>
      <trkpt lat="48.954" lon="1.99714">
        <ele>18</ele>
        <time>2020-05-16T12:49:04Z</time>
      </trkpt>
      <trkpt lat="48.95409" lon="1.9972">
        <ele>19</ele>
        <time>2020-05-16T12:49:11Z</time>
      </trkpt>
      <trkpt lat="48.95412" lon="1.99733">
        <ele>19</ele>
        <time>2020-05-16T12:49:22Z</time>
      </trkpt>
      <trkpt lat="48.95415" lon="1.99747">
        <ele>19</ele>
        <time>2020-05-16T12:49:28Z</time>
      </trkpt>
      <trkpt lat="48.95418" lon="1.9976">
        <ele>18</ele>
        <time>2020-05-16T12:49:39Z</time>
      </trkpt>
      <trkpt lat="48.95422" lon="1.99774">
        <ele>18</ele>
        <time>2020-05-16T12:49:45Z</time>
      </trkpt>
      <trkpt lat="48.95426" lon="1.99787">
        <ele>18</ele>
        <time>2020-05-16T12:49:52Z</time>
      </trkpt>
      <trkpt lat="48.95435" lon="1.99793">
        <ele>18</ele>
        <time>2020-05-16T12:50:01Z</time>
      </trkpt>
      <trkpt lat="48.95443" lon="1.9979">
        <ele>17</ele>
        <time>2020-05-16T12:50:09Z</time>
      </trkpt>
      <trkpt lat="48.95452" lon="1.99793">
        <ele>19</ele>
        <time>2020-05-16T12:53:39Z</time>
      </trkpt>
      <trkpt lat="48.95462" lon="1.99791">
        <ele>19</ele>
        <time>2020-05-16T12:54:27Z</time>
      </trkpt>
      <trkpt lat="48.95471" lon="1.99789">
        <ele>18</ele>
        <time>2020-05-16T12:54:38Z</time>
      </trkpt>
      <trkpt lat="48.9548" lon="1.99785">
        <ele>18</ele>
        <time>2020-05-16T12:54:51Z</time>
      </trkpt>
      <trkpt lat="48.95489" lon="1.99789">
        <ele>18</ele>
        <time>2020-05-16T12:55:01Z</time>
      </trkpt>
      <trkpt lat="48.95499" lon="1.99787">
        <ele>18</ele>
        <time>2020-05-16T12:55:08Z</time>
      </trkpt>
      <trkpt lat="48.95508" lon="1.9978">
        <ele>18</ele>
        <time>2020-05-16T12:55:13Z</time>
      </trkpt>
      <trkpt lat="48.95508" lon="1.99764">
        <ele>17</ele>
        <time>2020-05-16T12:55:23Z</time>
      </trkpt>
      <trkpt lat="48.95508" lon="1.99749">
        <ele>16</ele>
        <time>2020-05-16T12:55:32Z</time>
      </trkpt>
      <trkpt lat="48.95506" lon="1.99735">
        <ele>16</ele>
        <time>2020-05-16T12:55:38Z</time>
      </trkpt>
      <trkpt lat="48.95506" lon="1.9972">
        <ele>16</ele>
        <time>2020-05-16T12:55:46Z</time>
      </trkpt>
      <trkpt lat="48.95511" lon="1.99707">
        <ele>16</ele>
        <time>2020-05-16T12:55:53Z</time>
      </trkpt>
      <trkpt lat="48.95514" lon="1.99694">
        <ele>17</ele>
        <time>2020-05-16T12:56:01Z</time>
      </trkpt>
      <trkpt lat="48.95525" lon="1.99691">
        <ele>17</ele>
        <time>2020-05-16T12:56:06Z</time>
      </trkpt>
      <trkpt lat="48.95534" lon="1.99686">
        <ele>18</ele>
        <time>2020-05-16T12:56:19Z</time>
      </trkpt>
      <trkpt lat="48.95543" lon="1.9968">
        <ele>18</ele>
        <time>2020-05-16T12:56:25Z</time>
      </trkpt>
      <trkpt lat="48.9555" lon="1.99671">
        <ele>18</ele>
        <time>2020-05-16T12:56:30Z</time>
      </trkpt>
      <trkpt lat="48.95558" lon="1.99661">
        <ele>18</ele>
        <time>2020-05-16T12:56:36Z</time>
      </trkpt>
      <trkpt lat="48.95562" lon="1.99648">
        <ele>18</ele>
        <time>2020-05-16T12:56:43Z</time>
      </trkpt>
      <trkpt lat="48.95561" lon="1.99633">
        <ele>18</ele>
        <time>2020-05-16T12:56:50Z</time>
      </trkpt>
      <trkpt lat="48.95559" lon="1.99619">
        <ele>18</ele>
        <time>2020-05-16T12:56:58Z</time>
      </trkpt>
      <trkpt lat="48.95556" lon="1.99607">
        <ele>18</ele>
        <time>2020-05-16T12:57:07Z</time>
      </trkpt>
      <trkpt lat="48.95557" lon="1.99591">
        <ele>21</ele>
        <time>2020-05-16T12:58:34Z</time>
      </trkpt>
      <trkpt lat="48.95553" lon="1.99577">
        <ele>22</ele>
        <time>2020-05-16T12:58:42Z</time>
      </trkpt>
      <trkpt lat="48.95552" lon="1.99562">
        <ele>23</ele>
        <time>2020-05-16T12:58:50Z</time>
      </trkpt>
      <trkpt lat="48.95552" lon="1.99547">
        <ele>24</ele>
        <time>2020-05-16T12:59:00Z</time>
      </trkpt>
      <trkpt lat="48.95561" lon="1.99541">
        <ele>24</ele>
        <time>2020-05-16T12:59:15Z</time>
      </trkpt>
      <trkpt lat="48.95553" lon="1.99549">
        <ele>25</ele>
        <time>2020-05-16T13:00:30Z</time>
      </trkpt>
      <trkpt lat="48.95545" lon="1.99557">
        <ele>25</ele>
        <time>2020-05-16T13:00:42Z</time>
      </trkpt>
      <trkpt lat="48.95538" lon="1.99564">
        <ele>26</ele>
        <time>2020-05-16T13:00:49Z</time>
      </trkpt>
      <trkpt lat="48.95528" lon="1.99565">
        <ele>27</ele>
        <time>2020-05-16T13:00:57Z</time>
      </trkpt>
      <trkpt lat="48.95518" lon="1.99569">
        <ele>27</ele>
        <time>2020-05-16T13:01:03Z</time>
      </trkpt>
      <trkpt lat="48.95509" lon="1.99578">
        <ele>28</ele>
        <time>2020-05-16T13:01:12Z</time>
      </trkpt>
      <trkpt lat="48.955" lon="1.99574">
        <ele>29</ele>
        <time>2020-05-16T13:01:20Z</time>
      </trkpt>
      <trkpt lat="48.95494" lon="1.99563">
        <ele>28</ele>
        <time>2020-05-16T13:01:28Z</time>
      </trkpt>
      <trkpt lat="48.95494" lon="1.99548">
        <ele>28</ele>
        <time>2020-05-16T13:01:36Z</time>
      </trkpt>
      <trkpt lat="48.95497" lon="1.99534">
        <ele>27</ele>
        <time>2020-05-16T13:01:44Z</time>
      </trkpt>
      <trkpt lat="48.95496" lon="1.99519">
        <ele>26</ele>
        <time>2020-05-16T13:01:52Z</time>
      </trkpt>
      <trkpt lat="48.95491" lon="1.99505">
        <ele>27</ele>
        <time>2020-05-16T13:02:00Z</time>
      </trkpt>
      <trkpt lat="48.95492" lon="1.9949">
        <ele>27</ele>
        <time>2020-05-16T13:02:05Z</time>
      </trkpt>
      <trkpt lat="48.95492" lon="1.99475">
        <ele>27</ele>
        <time>2020-05-16T13:02:15Z</time>
      </trkpt>
      <trkpt lat="48.95492" lon="1.99461">
        <ele>28</ele>
        <time>2020-05-16T13:02:23Z</time>
      </trkpt>
      <trkpt lat="48.955" lon="1.99451">
        <ele>28</ele>
        <time>2020-05-16T13:02:46Z</time>
      </trkpt>
      <trkpt lat="48.95507" lon="1.99443">
        <ele>29</ele>
        <time>2020-05-16T13:02:55Z</time>
      </trkpt>
      <trkpt lat="48.95516" lon="1.99436">
        <ele>30</ele>
        <time>2020-05-16T13:03:02Z</time>
      </trkpt>
      <trkpt lat="48.95526" lon="1.99434">
        <ele>32</ele>
        <time>2020-05-16T13:03:11Z</time>
      </trkpt>
      <trkpt lat="48.95535" lon="1.99429">
        <ele>33</ele>
        <time>2020-05-16T13:03:20Z</time>
      </trkpt>
      <trkpt lat="48.95544" lon="1.99426">
        <ele>34</ele>
        <time>2020-05-16T13:03:26Z</time>
      </trkpt>
      <trkpt lat="48.95553" lon="1.9942">
        <ele>35</ele>
        <time>2020-05-16T13:03:33Z</time>
      </trkpt>
      <trkpt lat="48.95561" lon="1.99416">
        <ele>37</ele>
        <time>2020-05-16T13:03:41Z</time>
      </trkpt>
      <trkpt lat="48.95571" lon="1.99417">
        <ele>38</ele>
        <time>2020-05-16T13:03:55Z</time>
      </trkpt>
      <trkpt lat="48.95581" lon="1.99411">
        <ele>38</ele>
        <time>2020-05-16T13:04:03Z</time>
      </trkpt>
      <trkpt lat="48.95589" lon="1.99404">
        <ele>38</ele>
        <time>2020-05-16T13:04:10Z</time>
      </trkpt>
      <trkpt lat="48.95598" lon="1.99396">
        <ele>38</ele>
        <time>2020-05-16T13:04:19Z</time>
      </trkpt>
      <trkpt lat="48.95604" lon="1.99386">
        <ele>38</ele>
        <time>2020-05-16T13:04:26Z</time>
      </trkpt>
      <trkpt lat="48.95611" lon="1.99377">
        <ele>39</ele>
        <time>2020-05-16T13:04:34Z</time>
      </trkpt>
      <trkpt lat="48.95616" lon="1.99365">
        <ele>40</ele>
        <time>2020-05-16T13:04:40Z</time>
      </trkpt>
      <trkpt lat="48.95624" lon="1.99356">
        <ele>41</ele>
        <time>2020-05-16T13:04:47Z</time>
      </trkpt>
      <trkpt lat="48.95627" lon="1.99343">
        <ele>42</ele>
        <time>2020-05-16T13:04:54Z</time>
      </trkpt>
      <trkpt lat="48.95628" lon="1.99329">
        <ele>43</ele>
        <time>2020-05-16T13:05:01Z</time>
      </trkpt>
      <trkpt lat="48.95619" lon="1.9932">
        <ele>44</ele>
        <time>2020-05-16T13:05:05Z</time>
      </trkpt>
      <trkpt lat="48.95611" lon="1.99314">
        <ele>45</ele>
        <time>2020-05-16T13:05:12Z</time>
      </trkpt>
      <trkpt lat="48.95603" lon="1.99308">
        <ele>46</ele>
        <time>2020-05-16T13:05:21Z</time>
      </trkpt>
      <trkpt lat="48.95596" lon="1.99298">
        <ele>48</ele>
        <time>2020-05-16T13:05:28Z</time>
      </trkpt>
      <trkpt lat="48.95589" lon="1.99286">
        <ele>49</ele>
        <time>2020-05-16T13:05:35Z</time>
      </trkpt>
      <trkpt lat="48.95581" lon="1.99279">
        <ele>49</ele>
        <time>2020-05-16T13:05:43Z</time>
      </trkpt>
      <trkpt lat="48.95572" lon="1.99274">
        <ele>50</ele>
        <time>2020-05-16T13:05:50Z</time>
      </trkpt>
      <trkpt lat="48.95564" lon="1.99267">
        <ele>51</ele>
        <time>2020-05-16T13:05:57Z</time>
      </trkpt>
      <trkpt lat="48.95555" lon="1.99262">
        <ele>52</ele>
        <time>2020-05-16T13:06:03Z</time>
      </trkpt>
      <trkpt lat="48.95547" lon="1.99255">
        <ele>53</ele>
        <time>2020-05-16T13:06:11Z</time>
      </trkpt>
      <trkpt lat="48.95538" lon="1.99252">
        <ele>54</ele>
        <time>2020-05-16T13:06:19Z</time>
      </trkpt>
      <trkpt lat="48.95528" lon="1.99248">
        <ele>54</ele>
        <time>2020-05-16T13:06:26Z</time>
      </trkpt>
      <trkpt lat="48.95519" lon="1.99246">
        <ele>55</ele>
        <time>2020-05-16T13:06:33Z</time>
      </trkpt>
      <trkpt lat="48.95511" lon="1.99236">
        <ele>55</ele>
        <time>2020-05-16T13:06:40Z</time>
      </trkpt>
      <trkpt lat="48.95501" lon="1.99231">
        <ele>56</ele>
        <time>2020-05-16T13:06:48Z</time>
      </trkpt>
      <trkpt lat="48.95493" lon="1.99227">
        <ele>56</ele>
        <time>2020-05-16T13:06:55Z</time>
      </trkpt>
      <trkpt lat="48.95483" lon="1.99226">
        <ele>56</ele>
        <time>2020-05-16T13:07:02Z</time>
      </trkpt>
      <trkpt lat="48.95476" lon="1.99218">
        <ele>57</ele>
        <time>2020-05-16T13:07:09Z</time>
      </trkpt>
      <trkpt lat="48.95467" lon="1.99214">
        <ele>57</ele>
        <time>2020-05-16T13:07:17Z</time>
      </trkpt>
      <trkpt lat="48.95457" lon="1.99209">
        <ele>58</ele>
        <time>2020-05-16T13:07:24Z</time>
      </trkpt>
      <trkpt lat="48.95448" lon="1.99204">
        <ele>58</ele>
        <time>2020-05-16T13:07:32Z</time>
      </trkpt>
      <trkpt lat="48.95439" lon="1.99199">
        <ele>59</ele>
        <time>2020-05-16T13:07:38Z</time>
      </trkpt>
      <trkpt lat="48.9543" lon="1.99195">
        <ele>60</ele>
        <time>2020-05-16T13:07:45Z</time>
      </trkpt>
      <trkpt lat="48.95421" lon="1.9919">
        <ele>60</ele>
        <time>2020-05-16T13:07:53Z</time>
      </trkpt>
      <trkpt lat="48.95413" lon="1.99184">
        <ele>61</ele>
        <time>2020-05-16T13:07:59Z</time>
      </trkpt>
      <trkpt lat="48.95404" lon="1.9918">
        <ele>61</ele>
        <time>2020-05-16T13:08:07Z</time>
      </trkpt>
      <trkpt lat="48.95395" lon="1.99177">
        <ele>62</ele>
        <time>2020-05-16T13:08:14Z</time>
      </trkpt>
      <trkpt lat="48.95386" lon="1.99172">
        <ele>62</ele>
        <time>2020-05-16T13:08:20Z</time>
      </trkpt>
      <trkpt lat="48.95377" lon="1.99168">
        <ele>63</ele>
        <time>2020-05-16T13:08:28Z</time>
      </trkpt>
      <trkpt lat="48.95367" lon="1.99167">
        <ele>63</ele>
        <time>2020-05-16T13:08:36Z</time>
      </trkpt>
      <trkpt lat="48.95363" lon="1.99154">
        <ele>64</ele>
        <time>2020-05-16T13:08:52Z</time>
      </trkpt>
      <trkpt lat="48.9536" lon="1.99167">
        <ele>66</ele>
        <time>2020-05-16T13:10:12Z</time>
      </trkpt>
      <trkpt lat="48.95359" lon="1.99153">
        <ele>67</ele>
        <time>2020-05-16T13:10:24Z</time>
      </trkpt>
      <trkpt lat="48.9536" lon="1.99138">
        <ele>67</ele>
        <time>2020-05-16T13:10:32Z</time>
      </trkpt>
      <trkpt lat="48.95361" lon="1.99124">
        <ele>67</ele>
        <time>2020-05-16T13:10:40Z</time>
      </trkpt>
      <trkpt lat="48.95356" lon="1.99109">
        <ele>68</ele>
        <time>2020-05-16T13:10:47Z</time>
      </trkpt>
      <trkpt lat="48.95353" lon="1.99096">
        <ele>69</ele>
        <time>2020-05-16T13:10:53Z</time>
      </trkpt>
      <trkpt lat="48.95351" lon="1.99082">
        <ele>69</ele>
        <time>2020-05-16T13:11:03Z</time>
      </trkpt>
      <trkpt lat="48.95348" lon="1.9907">
        <ele>70</ele>
        <time>2020-05-16T13:11:11Z</time>
      </trkpt>
      <trkpt lat="48.95344" lon="1.99055">
        <ele>70</ele>
        <time>2020-05-16T13:11:20Z</time>
      </trkpt>
      <trkpt lat="48.95337" lon="1.99046">
        <ele>70</ele>
        <time>2020-05-16T13:11:29Z</time>
      </trkpt>
      <trkpt lat="48.95328" lon="1.99041">
        <ele>70</ele>
        <time>2020-05-16T13:11:37Z</time>
      </trkpt>
      <trkpt lat="48.95321" lon="1.99031">
        <ele>70</ele>
        <time>2020-05-16T13:11:46Z</time>
      </trkpt>
      <trkpt lat="48.95314" lon="1.99021">
        <ele>71</ele>
        <time>2020-05-16T13:11:54Z</time>
      </trkpt>
      <trkpt lat="48.95304" lon="1.9902">
        <ele>71</ele>
        <time>2020-05-16T13:12:02Z</time>
      </trkpt>
      <trkpt lat="48.95297" lon="1.9901">
        <ele>71</ele>
        <time>2020-05-16T13:12:11Z</time>
      </trkpt>
      <trkpt lat="48.95288" lon="1.99003">
        <ele>72</ele>
        <time>2020-05-16T13:12:20Z</time>
      </trkpt>
      <trkpt lat="48.95281" lon="1.98995">
        <ele>72</ele>
        <time>2020-05-16T13:12:29Z</time>
      </trkpt>
      <trkpt lat="48.95273" lon="1.98985">
        <ele>72</ele>
        <time>2020-05-16T13:12:40Z</time>
      </trkpt>
      <trkpt lat="48.95265" lon="1.98978">
        <ele>72</ele>
        <time>2020-05-16T13:12:49Z</time>
      </trkpt>
      <trkpt lat="48.95256" lon="1.9897">
        <ele>73</ele>
        <time>2020-05-16T13:12:58Z</time>
      </trkpt>
      <trkpt lat="48.95246" lon="1.98962">
        <ele>73</ele>
        <time>2020-05-16T13:13:06Z</time>
      </trkpt>
      <trkpt lat="48.95238" lon="1.98953">
        <ele>74</ele>
        <time>2020-05-16T13:13:15Z</time>
      </trkpt>
      <trkpt lat="48.9523" lon="1.98944">
        <ele>74</ele>
        <time>2020-05-16T13:13:24Z</time>
      </trkpt>
      <trkpt lat="48.95223" lon="1.98935">
        <ele>75</ele>
        <time>2020-05-16T13:13:32Z</time>
      </trkpt>
      <trkpt lat="48.95215" lon="1.98927">
        <ele>76</ele>
        <time>2020-05-16T13:13:39Z</time>
      </trkpt>
      <trkpt lat="48.95208" lon="1.98917">
        <ele>76</ele>
        <time>2020-05-16T13:13:47Z</time>
      </trkpt>
      <trkpt lat="48.952" lon="1.98909">
        <ele>76</ele>
        <time>2020-05-16T13:13:55Z</time>
      </trkpt>
      <trkpt lat="48.95192" lon="1.98901">
        <ele>77</ele>
        <time>2020-05-16T13:14:04Z</time>
      </trkpt>
      <trkpt lat="48.95184" lon="1.98893">
        <ele>77</ele>
        <time>2020-05-16T13:14:12Z</time>
      </trkpt>
      <trkpt lat="48.95175" lon="1.98885">
        <ele>77</ele>
        <time>2020-05-16T13:14:19Z</time>
      </trkpt>
      <trkpt lat="48.95168" lon="1.98876">
        <ele>78</ele>
        <time>2020-05-16T13:14:29Z</time>
      </trkpt>
      <trkpt lat="48.9516" lon="1.98867">
        <ele>78</ele>
        <time>2020-05-16T13:14:37Z</time>
      </trkpt>
      <trkpt lat="48.95152" lon="1.98859">
        <ele>78</ele>
        <time>2020-05-16T13:14:45Z</time>
      </trkpt>
      <trkpt lat="48.95144" lon="1.98851">
        <ele>78</ele>
        <time>2020-05-16T13:14:54Z</time>
      </trkpt>
      <trkpt lat="48.95136" lon="1.98842">
        <ele>78</ele>
        <time>2020-05-16T13:15:02Z</time>
      </trkpt>
      <trkpt lat="48.95128" lon="1.98833">
        <ele>78</ele>
        <time>2020-05-16T13:15:10Z</time>
      </trkpt>
      <trkpt lat="48.95121" lon="1.98823">
        <ele>79</ele>
        <time>2020-05-16T13:15:17Z</time>
      </trkpt>
      <trkpt lat="48.95113" lon="1.98815">
        <ele>80</ele>
        <time>2020-05-16T13:15:26Z</time>
      </trkpt>
      <trkpt lat="48.95105" lon="1.98808">
        <ele>81</ele>
        <time>2020-05-16T13:15:35Z</time>
      </trkpt>
      <trkpt lat="48.95097" lon="1.98797">
        <ele>81</ele>
        <time>2020-05-16T13:15:45Z</time>
      </trkpt>
      <trkpt lat="48.95088" lon="1.9879">
        <ele>81</ele>
        <time>2020-05-16T13:15:53Z</time>
      </trkpt>
      <trkpt lat="48.95082" lon="1.98781">
        <ele>81</ele>
        <time>2020-05-16T13:16:01Z</time>
      </trkpt>
      <trkpt lat="48.95074" lon="1.98772">
        <ele>81</ele>
        <time>2020-05-16T13:16:09Z</time>
      </trkpt>
      <trkpt lat="48.95067" lon="1.98763">
        <ele>81</ele>
        <time>2020-05-16T13:16:18Z</time>
      </trkpt>
      <trkpt lat="48.95059" lon="1.98754">
        <ele>81</ele>
        <time>2020-05-16T13:16:25Z</time>
      </trkpt>
      <trkpt lat="48.95052" lon="1.98744">
        <ele>81</ele>
        <time>2020-05-16T13:16:33Z</time>
      </trkpt>
      <trkpt lat="48.95044" lon="1.98735">
        <ele>81</ele>
        <time>2020-05-16T13:16:40Z</time>
      </trkpt>
      <trkpt lat="48.95037" lon="1.98725">
        <ele>81</ele>
        <time>2020-05-16T13:16:50Z</time>
      </trkpt>
      <trkpt lat="48.95029" lon="1.98718">
        <ele>80</ele>
        <time>2020-05-16T13:16:57Z</time>
      </trkpt>
      <trkpt lat="48.95021" lon="1.9871">
        <ele>80</ele>
        <time>2020-05-16T13:17:06Z</time>
      </trkpt>
      <trkpt lat="48.95012" lon="1.98704">
        <ele>80</ele>
        <time>2020-05-16T13:17:15Z</time>
      </trkpt>
      <trkpt lat="48.95003" lon="1.98698">
        <ele>81</ele>
        <time>2020-05-16T13:17:22Z</time>
      </trkpt>
      <trkpt lat="48.94998" lon="1.98686">
        <ele>81</ele>
        <time>2020-05-16T13:17:30Z</time>
      </trkpt>
      <trkpt lat="48.9499" lon="1.98677">
        <ele>82</ele>
        <time>2020-05-16T13:17:38Z</time>
      </trkpt>
      <trkpt lat="48.94982" lon="1.9867">
        <ele>82</ele>
        <time>2020-05-16T13:17:46Z</time>
      </trkpt>
      <trkpt lat="48.94976" lon="1.98657">
        <ele>83</ele>
        <time>2020-05-16T13:17:54Z</time>
      </trkpt>
      <trkpt lat="48.94969" lon="1.98648">
        <ele>83</ele>
        <time>2020-05-16T13:18:05Z</time>
      </trkpt>
      <trkpt lat="48.94961" lon="1.98643">
        <ele>83</ele>
        <time>2020-05-16T13:18:13Z</time>
      </trkpt>
      <trkpt lat="48.94954" lon="1.98633">
        <ele>84</ele>
        <time>2020-05-16T13:18:23Z</time>
      </trkpt>
      <trkpt lat="48.94946" lon="1.98622">
        <ele>84</ele>
        <time>2020-05-16T13:18:31Z</time>
      </trkpt>
      <trkpt lat="48.94938" lon="1.98612">
        <ele>85</ele>
        <time>2020-05-16T13:18:41Z</time>
      </trkpt>
      <trkpt lat="48.94931" lon="1.98603">
        <ele>85</ele>
        <time>2020-05-16T13:18:48Z</time>
      </trkpt>
      <trkpt lat="48.94923" lon="1.98595">
        <ele>86</ele>
        <time>2020-05-16T13:18:57Z</time>
      </trkpt>
      <trkpt lat="48.94916" lon="1.98585">
        <ele>86</ele>
        <time>2020-05-16T13:19:09Z</time>
      </trkpt>
      <trkpt lat="48.94908" lon="1.98576">
        <ele>85</ele>
        <time>2020-05-16T13:19:24Z</time>
      </trkpt>
      <trkpt lat="48.94902" lon="1.98565">
        <ele>84</ele>
        <time>2020-05-16T13:19:33Z</time>
      </trkpt>
      <trkpt lat="48.94895" lon="1.98558">
        <ele>84</ele>
        <time>2020-05-16T13:19:40Z</time>
      </trkpt>
      <trkpt lat="48.94889" lon="1.98546">
        <ele>84</ele>
        <time>2020-05-16T13:19:49Z</time>
      </trkpt>
      <trkpt lat="48.94881" lon="1.98539">
        <ele>84</ele>
        <time>2020-05-16T13:19:56Z</time>
      </trkpt>
      <trkpt lat="48.94874" lon="1.9853">
        <ele>84</ele>
        <time>2020-05-16T13:20:05Z</time>
      </trkpt>
      <trkpt lat="48.94871" lon="1.98516">
        <ele>84</ele>
        <time>2020-05-16T13:20:19Z</time>
      </trkpt>
      <trkpt lat="48.94869" lon="1.98502">
        <ele>83</ele>
        <time>2020-05-16T13:20:31Z</time>
      </trkpt>
      <trkpt lat="48.94866" lon="1.98488">
        <ele>84</ele>
        <time>2020-05-16T13:20:40Z</time>
      </trkpt>
      <trkpt lat="48.94863" lon="1.98475">
        <ele>84</ele>
        <time>2020-05-16T13:20:49Z</time>
      </trkpt>
      <trkpt lat="48.94857" lon="1.98463">
        <ele>85</ele>
        <time>2020-05-16T13:20:58Z</time>
      </trkpt>
      <trkpt lat="48.94851" lon="1.98452">
        <ele>85</ele>
        <time>2020-05-16T13:21:06Z</time>
      </trkpt>
      <trkpt lat="48.94842" lon="1.98445">
        <ele>85</ele>
        <time>2020-05-16T13:21:15Z</time>
      </trkpt>
      <trkpt lat="48.94833" lon="1.98437">
        <ele>85</ele>
        <time>2020-05-16T13:21:23Z</time>
      </trkpt>
      <trkpt lat="48.94825" lon="1.98428">
        <ele>85</ele>
        <time>2020-05-16T13:21:30Z</time>
      </trkpt>
      <trkpt lat="48.94817" lon="1.98418">
        <ele>86</ele>
        <time>2020-05-16T13:21:38Z</time>
      </trkpt>
      <trkpt lat="48.94809" lon="1.98411">
        <ele>86</ele>
        <time>2020-05-16T13:21:47Z</time>
      </trkpt>
      <trkpt lat="48.94804" lon="1.98399">
        <ele>87</ele>
        <time>2020-05-16T13:21:55Z</time>
      </trkpt>
      <trkpt lat="48.94797" lon="1.98386">
        <ele>87</ele>
        <time>2020-05-16T13:22:03Z</time>
      </trkpt>
      <trkpt lat="48.94793" lon="1.98373">
        <ele>88</ele>
        <time>2020-05-16T13:22:11Z</time>
      </trkpt>
      <trkpt lat="48.94787" lon="1.98362">
        <ele>88</ele>
        <time>2020-05-16T13:22:19Z</time>
      </trkpt>
      <trkpt lat="48.94786" lon="1.98346">
        <ele>88</ele>
        <time>2020-05-16T13:22:28Z</time>
      </trkpt>
      <trkpt lat="48.94794" lon="1.98339">
        <ele>88</ele>
        <time>2020-05-16T13:22:35Z</time>
      </trkpt>
      <trkpt lat="48.94802" lon="1.98331">
        <ele>88</ele>
        <time>2020-05-16T13:22:41Z</time>
      </trkpt>
      <trkpt lat="48.9481" lon="1.98321">
        <ele>88</ele>
        <time>2020-05-16T13:22:49Z</time>
      </trkpt>
      <trkpt lat="48.94816" lon="1.98311">
        <ele>88</ele>
        <time>2020-05-16T13:22:57Z</time>
      </trkpt>
      <trkpt lat="48.94825" lon="1.98303">
        <ele>88</ele>
        <time>2020-05-16T13:23:05Z</time>
      </trkpt>
      <trkpt lat="48.94833" lon="1.98297">
        <ele>88</ele>
        <time>2020-05-16T13:23:13Z</time>
      </trkpt>
      <trkpt lat="48.94841" lon="1.98289">
        <ele>88</ele>
        <time>2020-05-16T13:23:19Z</time>
      </trkpt>
      <trkpt lat="48.94849" lon="1.98282">
        <ele>88</ele>
        <time>2020-05-16T13:23:26Z</time>
      </trkpt>
      <trkpt lat="48.94856" lon="1.98272">
        <ele>87</ele>
        <time>2020-05-16T13:23:35Z</time>
      </trkpt>
      <trkpt lat="48.94865" lon="1.98264">
        <ele>87</ele>
        <time>2020-05-16T13:23:42Z</time>
      </trkpt>
      <trkpt lat="48.94873" lon="1.98257">
        <ele>87</ele>
        <time>2020-05-16T13:23:51Z</time>
      </trkpt>
      <trkpt lat="48.94881" lon="1.98249">
        <ele>88</ele>
        <time>2020-05-16T13:23:59Z</time>
      </trkpt>
      <trkpt lat="48.9489" lon="1.9824">
        <ele>88</ele>
        <time>2020-05-16T13:24:07Z</time>
      </trkpt>
      <trkpt lat="48.94897" lon="1.9823">
        <ele>89</ele>
        <time>2020-05-16T13:24:15Z</time>
      </trkpt>
      <trkpt lat="48.94906" lon="1.98222">
        <ele>89</ele>
        <time>2020-05-16T13:24:23Z</time>
      </trkpt>
      <trkpt lat="48.94914" lon="1.98214">
        <ele>89</ele>
        <time>2020-05-16T13:24:30Z</time>
      </trkpt>
      <trkpt lat="48.94921" lon="1.98205">
        <ele>89</ele>
        <time>2020-05-16T13:24:36Z</time>
      </trkpt>
      <trkpt lat="48.94928" lon="1.98195">
        <ele>89</ele>
        <time>2020-05-16T13:24:44Z</time>
      </trkpt>
      <trkpt lat="48.94935" lon="1.98185">
        <ele>90</ele>
        <time>2020-05-16T13:24:52Z</time>
      </trkpt>
      <trkpt lat="48.9494" lon="1.98172">
        <ele>90</ele>
        <time>2020-05-16T13:24:59Z</time>
      </trkpt>
      <trkpt lat="48.94947" lon="1.98161">
        <ele>91</ele>
        <time>2020-05-16T13:25:07Z</time>
      </trkpt>
      <trkpt lat="48.94952" lon="1.98148">
        <ele>91</ele>
        <time>2020-05-16T13:25:15Z</time>
      </trkpt>
      <trkpt lat="48.94955" lon="1.98135">
        <ele>91</ele>
        <time>2020-05-16T13:25:21Z</time>
      </trkpt>
      <trkpt lat="48.94956" lon="1.98121">
        <ele>92</ele>
        <time>2020-05-16T13:25:28Z</time>
      </trkpt>
      <trkpt lat="48.94956" lon="1.98107">
        <ele>92</ele>
        <time>2020-05-16T13:25:35Z</time>
      </trkpt>
      <trkpt lat="48.94956" lon="1.98093">
        <ele>92</ele>
        <time>2020-05-16T13:25:44Z</time>
      </trkpt>
      <trkpt lat="48.94957" lon="1.98078">
        <ele>93</ele>
        <time>2020-05-16T13:25:51Z</time>
      </trkpt>
      <trkpt lat="48.9496" lon="1.98064">
        <ele>94</ele>
        <time>2020-05-16T13:25:57Z</time>
      </trkpt>
      <trkpt lat="48.94961" lon="1.9805">
        <ele>95</ele>
        <time>2020-05-16T13:26:06Z</time>
      </trkpt>
      <trkpt lat="48.94965" lon="1.98037">
        <ele>96</ele>
        <time>2020-05-16T13:26:13Z</time>
      </trkpt>
      <trkpt lat="48.94969" lon="1.98023">
        <ele>97</ele>
        <time>2020-05-16T13:26:24Z</time>
      </trkpt>
      <trkpt lat="48.94978" lon="1.98018">
        <ele>98</ele>
        <time>2020-05-16T13:26:33Z</time>
      </trkpt>
      <trkpt lat="48.94988" lon="1.98015">
        <ele>99</ele>
        <time>2020-05-16T13:26:41Z</time>
      </trkpt>
      <trkpt lat="48.94997" lon="1.98008">
        <ele>99</ele>
        <time>2020-05-16T13:26:49Z</time>
      </trkpt>
      <trkpt lat="48.95006" lon="1.98">
        <ele>100</ele>
        <time>2020-05-16T13:26:57Z</time>
      </trkpt>
      <trkpt lat="48.95016" lon="1.97995">
        <ele>101</ele>
        <time>2020-05-16T13:27:06Z</time>
      </trkpt>
      <trkpt lat="48.95025" lon="1.97989">
        <ele>102</ele>
        <time>2020-05-16T13:27:12Z</time>
      </trkpt>
      <trkpt lat="48.95033" lon="1.97982">
        <ele>102</ele>
        <time>2020-05-16T13:27:19Z</time>
      </trkpt>
      <trkpt lat="48.9504" lon="1.97973">
        <ele>102</ele>
        <time>2020-05-16T13:27:25Z</time>
      </trkpt>
      <trkpt lat="48.95043" lon="1.97959">
        <ele>102</ele>
        <time>2020-05-16T13:27:32Z</time>
      </trkpt>
      <trkpt lat="48.95046" lon="1.97945">
        <ele>102</ele>
        <time>2020-05-16T13:27:41Z</time>
      </trkpt>
      <trkpt lat="48.95045" lon="1.97931">
        <ele>102</ele>
        <time>2020-05-16T13:27:48Z</time>
      </trkpt>
      <trkpt lat="48.95042" lon="1.97917">
        <ele>103</ele>
        <time>2020-05-16T13:27:55Z</time>
      </trkpt>
      <trkpt lat="48.95037" lon="1.97904">
        <ele>104</ele>
        <time>2020-05-16T13:28:03Z</time>
      </trkpt>
      <trkpt lat="48.95038" lon="1.9789">
        <ele>105</ele>
        <time>2020-05-16T13:28:12Z</time>
      </trkpt>
      <trkpt lat="48.95049" lon="1.9789">
        <ele>106</ele>
        <time>2020-05-16T13:28:20Z</time>
      </trkpt>
      <trkpt lat="48.95056" lon="1.97882">
        <ele>106</ele>
        <time>2020-05-16T13:28:27Z</time>
      </trkpt>
      <trkpt lat="48.95059" lon="1.97868">
        <ele>107</ele>
        <time>2020-05-16T13:28:35Z</time>
      </trkpt>
      <trkpt lat="48.95058" lon="1.97854">
        <ele>107</ele>
        <time>2020-05-16T13:28:43Z</time>
      </trkpt>
      <trkpt lat="48.95062" lon="1.9784">
        <ele>108</ele>
        <time>2020-05-16T13:28:50Z</time>
      </trkpt>
      <trkpt lat="48.95066" lon="1.97827">
        <ele>108</ele>
        <time>2020-05-16T13:28:57Z</time>
      </trkpt>
      <trkpt lat="48.95067" lon="1.97812">
        <ele>109</ele>
        <time>2020-05-16T13:29:04Z</time>
      </trkpt>
      <trkpt lat="48.95067" lon="1.97797">
        <ele>109</ele>
        <time>2020-05-16T13:29:12Z</time>
      </trkpt>
      <trkpt lat="48.9507" lon="1.97782">
        <ele>110</ele>
        <time>2020-05-16T13:29:20Z</time>
      </trkpt>
      <trkpt lat="48.95073" lon="1.97769">
        <ele>110</ele>
        <time>2020-05-16T13:29:28Z</time>
      </trkpt>
      <trkpt lat="48.9508" lon="1.9776">
        <ele>111</ele>
        <time>2020-05-16T13:29:41Z</time>
      </trkpt>
      <trkpt lat="48.95084" lon="1.97747">
        <ele>111</ele>
        <time>2020-05-16T13:29:50Z</time>
      </trkpt>
      <trkpt lat="48.95087" lon="1.97733">
        <ele>112</ele>
        <time>2020-05-16T13:30:05Z</time>
      </trkpt>
      <trkpt lat="48.95078" lon="1.97728">
        <ele>113</ele>
        <time>2020-05-16T13:30:19Z</time>
      </trkpt>
      <trkpt lat="48.95068" lon="1.97728">
        <ele>113</ele>
        <time>2020-05-16T13:30:29Z</time>
      </trkpt>
      <trkpt lat="48.95058" lon="1.97727">
        <ele>114</ele>
        <time>2020-05-16T13:30:45Z</time>
      </trkpt>
      <trkpt lat="48.95056" lon="1.97741">
        <ele>118</ele>
        <time>2020-05-16T13:31:01Z</time>
      </trkpt>
      <trkpt lat="48.95047" lon="1.97753">
        <ele>117</ele>
        <time>2020-05-16T13:31:09Z</time>
      </trkpt>
      <trkpt lat="48.95035" lon="1.97751">
        <ele>117</ele>
        <time>2020-05-16T13:31:16Z</time>
      </trkpt>
      <trkpt lat="48.95045" lon="1.97745">
        <ele>120</ele>
        <time>2020-05-16T13:31:44Z</time>
      </trkpt>
      <trkpt lat="48.95051" lon="1.97732">
        <ele>118</ele>
        <time>2020-05-16T13:31:51Z</time>
      </trkpt>
      <trkpt lat="48.9505" lon="1.97717">
        <ele>117</ele>
        <time>2020-05-16T13:31:56Z</time>
      </trkpt>
      <trkpt lat="48.95046" lon="1.97705">
        <ele>115</ele>
        <time>2020-05-16T13:32:01Z</time>
      </trkpt>
      <trkpt lat="48.95045" lon="1.97689">
        <ele>115</ele>
        <time>2020-05-16T13:32:08Z</time>
      </trkpt>
      <trkpt lat="48.95041" lon="1.97676">
        <ele>115</ele>
        <time>2020-05-16T13:32:18Z</time>
      </trkpt>
      <trkpt lat="48.95037" lon="1.97661">
        <ele>116</ele>
        <time>2020-05-16T13:32:24Z</time>
      </trkpt>
      <trkpt lat="48.95034" lon="1.97648">
        <ele>117</ele>
        <time>2020-05-16T13:32:35Z</time>
      </trkpt>
      <trkpt lat="48.95026" lon="1.97641">
        <ele>117</ele>
        <time>2020-05-16T13:32:44Z</time>
      </trkpt>
      <trkpt lat="48.95017" lon="1.97639">
        <ele>118</ele>
        <time>2020-05-16T13:32:50Z</time>
      </trkpt>
      <trkpt lat="48.95007" lon="1.97641">
        <ele>118</ele>
        <time>2020-05-16T13:33:00Z</time>
      </trkpt>
      <trkpt lat="48.94996" lon="1.9764">
        <ele>119</ele>
        <time>2020-05-16T13:33:06Z</time>
      </trkpt>
      <trkpt lat="48.94987" lon="1.97644">
        <ele>121</ele>
        <time>2020-05-16T13:33:16Z</time>
      </trkpt>
      <trkpt lat="48.94986" lon="1.97658">
        <ele>124</ele>
        <time>2020-05-16T13:34:00Z</time>
      </trkpt>
      <trkpt lat="48.94983" lon="1.97644">
        <ele>128</ele>
        <time>2020-05-16T13:34:23Z</time>
      </trkpt>
      <trkpt lat="48.94973" lon="1.97647">
        <ele>130</ele>
        <time>2020-05-16T13:34:36Z</time>
      </trkpt>
      <trkpt lat="48.94965" lon="1.97641">
        <ele>131</ele>
        <time>2020-05-16T13:34:45Z</time>
      </trkpt>
      <trkpt lat="48.94957" lon="1.97632">
        <ele>133</ele>
        <time>2020-05-16T13:34:55Z</time>
      </trkpt>
      <trkpt lat="48.94949" lon="1.97623">
        <ele>134</ele>
        <time>2020-05-16T13:35:01Z</time>
      </trkpt>
      <trkpt lat="48.94943" lon="1.97611">
        <ele>135</ele>
        <time>2020-05-16T13:35:12Z</time>
      </trkpt>
      <trkpt lat="48.94938" lon="1.97599">
        <ele>137</ele>
        <time>2020-05-16T13:35:23Z</time>
      </trkpt>
      <trkpt lat="48.94931" lon="1.97589">
        <ele>139</ele>
        <time>2020-05-16T13:35:31Z</time>
      </trkpt>
      <trkpt lat="48.94928" lon="1.97575">
        <ele>141</ele>
        <time>2020-05-16T13:35:40Z</time>
      </trkpt>
      <trkpt lat="48.94922" lon="1.97564">
        <ele>142</ele>
        <time>2020-05-16T13:35:47Z</time>
      </trkpt>
      <trkpt lat="48.94915" lon="1.97552">
        <ele>142</ele>
        <time>2020-05-16T13:35:52Z</time>
      </trkpt>
      <trkpt lat="48.94909" lon="1.97541">
        <ele>142</ele>
        <time>2020-05-16T13:35:58Z</time>
      </trkpt>
      <trkpt lat="48.94902" lon="1.97531">
        <ele>141</ele>
        <time>2020-05-16T13:36:08Z</time>
      </trkpt>
      <trkpt lat="48.94894" lon="1.97524">
        <ele>141</ele>
        <time>2020-05-16T13:36:13Z</time>
      </trkpt>
      <trkpt lat="48.94888" lon="1.97514">
        <ele>141</ele>
        <time>2020-05-16T13:36:21Z</time>
      </trkpt>
      <trkpt lat="48.94879" lon="1.97506">
        <ele>141</ele>
        <time>2020-05-16T13:36:31Z</time>
      </trkpt>
      <trkpt lat="48.94872" lon="1.97497">
        <ele>141</ele>
        <time>2020-05-16T13:36:38Z</time>
      </trkpt>
      <trkpt lat="48.94866" lon="1.97485">
        <ele>143</ele>
        <time>2020-05-16T13:36:46Z</time>
      </trkpt>
      <trkpt lat="48.94858" lon="1.97473">
        <ele>143</ele>
        <time>2020-05-16T13:36:50Z</time>
      </trkpt>
      <trkpt lat="48.94851" lon="1.97464">
        <ele>143</ele>
        <time>2020-05-16T13:36:56Z</time>
      </trkpt>
      <trkpt lat="48.94842" lon="1.97458">
        <ele>143</ele>
        <time>2020-05-16T13:37:01Z</time>
      </trkpt>
      <trkpt lat="48.94836" lon="1.97447">
        <ele>144</ele>
        <time>2020-05-16T13:37:13Z</time>
      </trkpt>
      <trkpt lat="48.9483" lon="1.97437">
        <ele>146</ele>
        <time>2020-05-16T13:37:23Z</time>
      </trkpt>
      <trkpt lat="48.94823" lon="1.97426">
        <ele>148</ele>
        <time>2020-05-16T13:37:34Z</time>
      </trkpt>
      <trkpt lat="48.94816" lon="1.97416">
        <ele>149</ele>
        <time>2020-05-16T13:37:44Z</time>
      </trkpt>
      <trkpt lat="48.94808" lon="1.97408">
        <ele>149</ele>
        <time>2020-05-16T13:37:49Z</time>
      </trkpt>
      <trkpt lat="48.94801" lon="1.97399">
        <ele>150</ele>
        <time>2020-05-16T13:38:00Z</time>
      </trkpt>
      <trkpt lat="48.94795" lon="1.97389">
        <ele>151</ele>
        <time>2020-05-16T13:38:09Z</time>
      </trkpt>
      <trkpt lat="48.94786" lon="1.97381">
        <ele>151</ele>
        <time>2020-05-16T13:38:18Z</time>
      </trkpt>
      <trkpt lat="48.94776" lon="1.97375">
        <ele>151</ele>
        <time>2020-05-16T13:38:27Z</time>
      </trkpt>
      <trkpt lat="48.94769" lon="1.97367">
        <ele>153</ele>
        <time>2020-05-16T13:38:36Z</time>
      </trkpt>
      <trkpt lat="48.94761" lon="1.97359">
        <ele>154</ele>
        <time>2020-05-16T13:38:46Z</time>
      </trkpt>
      <trkpt lat="48.94752" lon="1.97351">
        <ele>155</ele>
        <time>2020-05-16T13:38:57Z</time>
      </trkpt>
      <trkpt lat="48.94743" lon="1.97345">
        <ele>156</ele>
        <time>2020-05-16T13:39:07Z</time>
      </trkpt>
      <trkpt lat="48.94736" lon="1.97336">
        <ele>157</ele>
        <time>2020-05-16T13:39:11Z</time>
      </trkpt>
      <trkpt lat="48.94727" lon="1.97332">
        <ele>157</ele>
        <time>2020-05-16T13:39:18Z</time>
      </trkpt>
      <trkpt lat="48.94718" lon="1.97326">
        <ele>158</ele>
        <time>2020-05-16T13:39:27Z</time>
      </trkpt>
      <trkpt lat="48.9471" lon="1.97319">
        <ele>159</ele>
        <time>2020-05-16T13:39:34Z</time>
      </trkpt>
      <trkpt lat="48.94701" lon="1.97312">
        <ele>160</ele>
        <time>2020-05-16T13:39:46Z</time>
      </trkpt>
      <trkpt lat="48.94692" lon="1.97307">
        <ele>161</ele>
        <time>2020-05-16T13:39:53Z</time>
      </trkpt>
      <trkpt lat="48.94683" lon="1.97304">
        <ele>161</ele>
        <time>2020-05-16T13:40:03Z</time>
      </trkpt>
      <trkpt lat="48.94674" lon="1.97298">
        <ele>162</ele>
        <time>2020-05-16T13:40:13Z</time>
      </trkpt>
      <trkpt lat="48.94665" lon="1.97292">
        <ele>162</ele>
        <time>2020-05-16T13:40:20Z</time>
      </trkpt>
      <trkpt lat="48.94657" lon="1.97287">
        <ele>162</ele>
        <time>2020-05-16T13:40:27Z</time>
      </trkpt>
      <trkpt lat="48.94647" lon="1.97281">
        <ele>162</ele>
        <time>2020-05-16T13:40:34Z</time>
      </trkpt>
      <trkpt lat="48.94639" lon="1.97275">
        <ele>162</ele>
        <time>2020-05-16T13:40:42Z</time>
      </trkpt>
      <trkpt lat="48.9463" lon="1.9727">
        <ele>163</ele>
        <time>2020-05-16T13:40:51Z</time>
      </trkpt>
      <trkpt lat="48.94621" lon="1.97267">
        <ele>163</ele>
        <time>2020-05-16T13:41:01Z</time>
      </trkpt>
      <trkpt lat="48.94611" lon="1.9726">
        <ele>164</ele>
        <time>2020-05-16T13:41:10Z</time>
      </trkpt>
      <trkpt lat="48.94601" lon="1.9726">
        <ele>163</ele>
        <time>2020-05-16T13:41:16Z</time>
      </trkpt>
      <trkpt lat="48.94592" lon="1.97255">
        <ele>163</ele>
        <time>2020-05-16T13:41:22Z</time>
      </trkpt>
      <trkpt lat="48.94584" lon="1.97249">
        <ele>164</ele>
        <time>2020-05-16T13:41:28Z</time>
      </trkpt>
      <trkpt lat="48.94574" lon="1.97246">
        <ele>164</ele>
        <time>2020-05-16T13:41:36Z</time>
      </trkpt>
      <trkpt lat="48.94565" lon="1.97244">
        <ele>165</ele>
        <time>2020-05-16T13:41:45Z</time>
      </trkpt>
      <trkpt lat="48.94556" lon="1.97241">
        <ele>165</ele>
        <time>2020-05-16T13:41:54Z</time>
      </trkpt>
      <trkpt lat="48.94545" lon="1.97243">
        <ele>165</ele>
        <time>2020-05-16T13:42:03Z</time>
      </trkpt>
      <trkpt lat="48.94535" lon="1.97245">
        <ele>165</ele>
        <time>2020-05-16T13:42:12Z</time>
      </trkpt>
      <trkpt lat="48.94525" lon="1.97247">
        <ele>166</ele>
        <time>2020-05-16T13:42:19Z</time>
      </trkpt>
      <trkpt lat="48.94516" lon="1.97244">
        <ele>166</ele>
        <time>2020-05-16T13:42:25Z</time>
      </trkpt>
      <trkpt lat="48.94507" lon="1.97242">
        <ele>167</ele>
        <time>2020-05-16T13:42:31Z</time>
      </trkpt>
      <trkpt lat="48.94497" lon="1.97242">
        <ele>167</ele>
        <time>2020-05-16T13:42:38Z</time>
      </trkpt>
      <trkpt lat="48.94488" lon="1.97238">
        <ele>167</ele>
        <time>2020-05-16T13:42:46Z</time>
      </trkpt>
      <trkpt lat="48.94478" lon="1.97231">
        <ele>167</ele>
        <time>2020-05-16T13:42:50Z</time>
      </trkpt>
      <trkpt lat="48.94473" lon="1.97218">
        <ele>167</ele>
        <time>2020-05-16T13:43:00Z</time>
      </trkpt>
      <trkpt lat="48.94473" lon="1.97204">
        <ele>168</ele>
        <time>2020-05-16T13:43:07Z</time>
      </trkpt>
      <trkpt lat="48.94473" lon="1.9719">
        <ele>169</ele>
        <time>2020-05-16T13:43:14Z</time>
      </trkpt>
      <trkpt lat="48.94474" lon="1.97176">
        <ele>170</ele>
        <time>2020-05-16T13:43:23Z</time>
      </trkpt>
      <trkpt lat="48.9447" lon="1.97162">
        <ele>171</ele>
        <time>2020-05-16T13:43:32Z</time>
      </trkpt>
      <trkpt lat="48.94463" lon="1.97151">
        <ele>172</ele>
        <time>2020-05-16T13:43:40Z</time>
      </trkpt>
      <trkpt lat="48.94454" lon="1.97142">
        <ele>173</ele>
        <time>2020-05-16T13:43:49Z</time>
      </trkpt>
      <trkpt lat="48.94447" lon="1.97134">
        <ele>175</ele>
        <time>2020-05-16T13:43:57Z</time>
      </trkpt>
      <trkpt lat="48.94441" lon="1.97122">
        <ele>175</ele>
        <time>2020-05-16T13:44:07Z</time>
      </trkpt>
      <trkpt lat="48.94433" lon="1.97115">
        <ele>175</ele>
        <time>2020-05-16T13:44:16Z</time>
      </trkpt>
      <trkpt lat="48.94426" lon="1.97105">
        <ele>175</ele>
        <time>2020-05-16T13:44:25Z</time>
      </trkpt>
      <trkpt lat="48.94419" lon="1.97096">
        <ele>175</ele>
        <time>2020-05-16T13:44:33Z</time>
      </trkpt>
      <trkpt lat="48.94411" lon="1.97087">
        <ele>174</ele>
        <time>2020-05-16T13:44:39Z</time>
      </trkpt>
      <trkpt lat="48.94406" lon="1.97073">
        <ele>174</ele>
        <time>2020-05-16T13:44:48Z</time>
      </trkpt>
      <trkpt lat="48.94404" lon="1.97059">
        <ele>173</ele>
        <time>2020-05-16T13:44:54Z</time>
      </trkpt>
      <trkpt lat="48.94402" lon="1.97045">
        <ele>172</ele>
        <time>2020-05-16T13:45:03Z</time>
      </trkpt>
      <trkpt lat="48.94403" lon="1.97029">
        <ele>172</ele>
        <time>2020-05-16T13:45:09Z</time>
      </trkpt>
      <trkpt lat="48.94402" lon="1.97014">
        <ele>171</ele>
        <time>2020-05-16T13:45:16Z</time>
      </trkpt>
      <trkpt lat="48.94402" lon="1.97">
        <ele>171</ele>
        <time>2020-05-16T13:45:25Z</time>
      </trkpt>
      <trkpt lat="48.94405" lon="1.96987">
        <ele>171</ele>
        <time>2020-05-16T13:45:32Z</time>
      </trkpt>
      <trkpt lat="48.94407" lon="1.96973">
        <ele>170</ele>
        <time>2020-05-16T13:45:40Z</time>
      </trkpt>
      <trkpt lat="48.94416" lon="1.96969">
        <ele>169</ele>
        <time>2020-05-16T13:46:02Z</time>
      </trkpt>
      <trkpt lat="48.94425" lon="1.96967">
        <ele>169</ele>
        <time>2020-05-16T13:46:13Z</time>
      </trkpt>
      <trkpt lat="48.94433" lon="1.9697">
        <ele>169</ele>
        <time>2020-05-16T13:46:20Z</time>
      </trkpt>
      <trkpt lat="48.94443" lon="1.96974">
        <ele>168</ele>
        <time>2020-05-16T13:46:29Z</time>
      </trkpt>
      <trkpt lat="48.94453" lon="1.96974">
        <ele>167</ele>
        <time>2020-05-16T13:46:39Z</time>
      </trkpt>
      <trkpt lat="48.94462" lon="1.96971">
        <ele>166</ele>
        <time>2020-05-16T13:46:48Z</time>
      </trkpt>
      <trkpt lat="48.94472" lon="1.96969">
        <ele>166</ele>
        <time>2020-05-16T13:46:57Z</time>
      </trkpt>
      <trkpt lat="48.94481" lon="1.96967">
        <ele>166</ele>
        <time>2020-05-16T13:47:06Z</time>
      </trkpt>
      <trkpt lat="48.94492" lon="1.96967">
        <ele>166</ele>
        <time>2020-05-16T13:47:13Z</time>
      </trkpt>
      <trkpt lat="48.94502" lon="1.96965">
        <ele>167</ele>
        <time>2020-05-16T13:47:20Z</time>
      </trkpt>
      <trkpt lat="48.94511" lon="1.96963">
        <ele>167</ele>
        <time>2020-05-16T13:47:31Z</time>
      </trkpt>
      <trkpt lat="48.9452" lon="1.96961">
        <ele>167</ele>
        <time>2020-05-16T13:47:38Z</time>
      </trkpt>
      <trkpt lat="48.94529" lon="1.96959">
        <ele>167</ele>
        <time>2020-05-16T13:47:46Z</time>
      </trkpt>
      <trkpt lat="48.94538" lon="1.96956">
        <ele>167</ele>
        <time>2020-05-16T13:47:54Z</time>
      </trkpt>
      <trkpt lat="48.94547" lon="1.96956">
        <ele>168</ele>
        <time>2020-05-16T13:48:03Z</time>
      </trkpt>
      <trkpt lat="48.94557" lon="1.96952">
        <ele>169</ele>
        <time>2020-05-16T13:48:11Z</time>
      </trkpt>
      <trkpt lat="48.94566" lon="1.96949">
        <ele>169</ele>
        <time>2020-05-16T13:48:19Z</time>
      </trkpt>
      <trkpt lat="48.94576" lon="1.96948">
        <ele>170</ele>
        <time>2020-05-16T13:48:28Z</time>
      </trkpt>
      <trkpt lat="48.94586" lon="1.96946">
        <ele>171</ele>
        <time>2020-05-16T13:48:34Z</time>
      </trkpt>
      <trkpt lat="48.94595" lon="1.96946">
        <ele>171</ele>
        <time>2020-05-16T13:48:46Z</time>
      </trkpt>
      <trkpt lat="48.94604" lon="1.96944">
        <ele>172</ele>
        <time>2020-05-16T13:48:54Z</time>
      </trkpt>
      <trkpt lat="48.94615" lon="1.9694">
        <ele>172</ele>
        <time>2020-05-16T13:49:02Z</time>
      </trkpt>
      <trkpt lat="48.94624" lon="1.96931">
        <ele>171</ele>
        <time>2020-05-16T13:49:08Z</time>
      </trkpt>
      <trkpt lat="48.9463" lon="1.96919">
        <ele>170</ele>
        <time>2020-05-16T13:49:16Z</time>
      </trkpt>
      <trkpt lat="48.94636" lon="1.96907">
        <ele>169</ele>
        <time>2020-05-16T13:49:23Z</time>
      </trkpt>
      <trkpt lat="48.94643" lon="1.96894">
        <ele>168</ele>
        <time>2020-05-16T13:49:31Z</time>
      </trkpt>
      <trkpt lat="48.94647" lon="1.96881">
        <ele>168</ele>
        <time>2020-05-16T13:49:37Z</time>
      </trkpt>
      <trkpt lat="48.94651" lon="1.96866">
        <ele>167</ele>
        <time>2020-05-16T13:49:45Z</time>
      </trkpt>
      <trkpt lat="48.94657" lon="1.96854">
        <ele>168</ele>
        <time>2020-05-16T13:49:51Z</time>
      </trkpt>
      <trkpt lat="48.94661" lon="1.96842">
        <ele>168</ele>
        <time>2020-05-16T13:49:57Z</time>
      </trkpt>
      <trkpt lat="48.94668" lon="1.96832">
        <ele>168</ele>
        <time>2020-05-16T13:50:11Z</time>
      </trkpt>
      <trkpt lat="48.94675" lon="1.96821">
        <ele>168</ele>
        <time>2020-05-16T13:50:20Z</time>
      </trkpt>
      <trkpt lat="48.9468" lon="1.96809">
        <ele>168</ele>
        <time>2020-05-16T13:50:30Z</time>
      </trkpt>
      <trkpt lat="48.94685" lon="1.96796">
        <ele>167</ele>
        <time>2020-05-16T13:50:39Z</time>
      </trkpt>
      <trkpt lat="48.94693" lon="1.9678">
        <ele>167</ele>
        <time>2020-05-16T13:50:42Z</time>
      </trkpt>
      <trkpt lat="48.94695" lon="1.96766">
        <ele>168</ele>
        <time>2020-05-16T13:50:50Z</time>
      </trkpt>
      <trkpt lat="48.94695" lon="1.9675">
        <ele>167</ele>
        <time>2020-05-16T13:50:57Z</time>
      </trkpt>
      <trkpt lat="48.94697" lon="1.96736">
        <ele>167</ele>
        <time>2020-05-16T13:51:03Z</time>
      </trkpt>
      <trkpt lat="48.94694" lon="1.96722">
        <ele>165</ele>
        <time>2020-05-16T13:51:20Z</time>
      </trkpt>
      <trkpt lat="48.94694" lon="1.96704">
        <ele>164</ele>
        <time>2020-05-16T13:51:26Z</time>
      </trkpt>
      <trkpt lat="48.94696" lon="1.96689">
        <ele>164</ele>
        <time>2020-05-16T13:51:31Z</time>
      </trkpt>
      <trkpt lat="48.94702" lon="1.96676">
        <ele>162</ele>
        <time>2020-05-16T13:51:40Z</time>
      </trkpt>
      <trkpt lat="48.94705" lon="1.96664">
        <ele>161</ele>
        <time>2020-05-16T13:51:51Z</time>
      </trkpt>
      <trkpt lat="48.94711" lon="1.96651">
        <ele>160</ele>
        <time>2020-05-16T13:51:59Z</time>
      </trkpt>
      <trkpt lat="48.94719" lon="1.96645">
        <ele>158</ele>
        <time>2020-05-16T13:52:08Z</time>
      </trkpt>
      <trkpt lat="48.94724" lon="1.96634">
        <ele>156</ele>
        <time>2020-05-16T13:52:16Z</time>
      </trkpt>
      <trkpt lat="48.94728" lon="1.96619">
        <ele>154</ele>
        <time>2020-05-16T13:52:22Z</time>
      </trkpt>
      <trkpt lat="48.94734" lon="1.96608">
        <ele>153</ele>
        <time>2020-05-16T13:52:27Z</time>
      </trkpt>
      <trkpt lat="48.94741" lon="1.966">
        <ele>150</ele>
        <time>2020-05-16T13:52:37Z</time>
      </trkpt>
      <trkpt lat="48.94747" lon="1.96587">
        <ele>147</ele>
        <time>2020-05-16T13:52:47Z</time>
      </trkpt>
      <trkpt lat="48.94751" lon="1.96573">
        <ele>145</ele>
        <time>2020-05-16T13:52:54Z</time>
      </trkpt>
      <trkpt lat="48.94754" lon="1.96559">
        <ele>144</ele>
        <time>2020-05-16T13:53:01Z</time>
      </trkpt>
      <trkpt lat="48.94758" lon="1.96544">
        <ele>143</ele>
        <time>2020-05-16T13:53:08Z</time>
      </trkpt>
      <trkpt lat="48.94761" lon="1.9653">
        <ele>142</ele>
        <time>2020-05-16T13:53:13Z</time>
      </trkpt>
      <trkpt lat="48.9477" lon="1.96519">
        <ele>141</ele>
        <time>2020-05-16T13:53:21Z</time>
      </trkpt>
      <trkpt lat="48.94777" lon="1.96508">
        <ele>140</ele>
        <time>2020-05-16T13:53:25Z</time>
      </trkpt>
      <trkpt lat="48.94784" lon="1.96499">
        <ele>140</ele>
        <time>2020-05-16T13:53:28Z</time>
      </trkpt>
      <trkpt lat="48.94793" lon="1.96492">
        <ele>140</ele>
        <time>2020-05-16T13:53:31Z</time>
      </trkpt>
      <trkpt lat="48.94801" lon="1.96485">
        <ele>139</ele>
        <time>2020-05-16T13:53:34Z</time>
      </trkpt>
      <trkpt lat="48.94809" lon="1.96478">
        <ele>140</ele>
        <time>2020-05-16T13:53:39Z</time>
      </trkpt>
      <trkpt lat="48.94817" lon="1.96468">
        <ele>140</ele>
        <time>2020-05-16T13:53:46Z</time>
      </trkpt>
      <trkpt lat="48.94822" lon="1.96454">
        <ele>140</ele>
        <time>2020-05-16T13:53:52Z</time>
      </trkpt>
      <trkpt lat="48.94827" lon="1.96442">
        <ele>140</ele>
        <time>2020-05-16T13:54:01Z</time>
      </trkpt>
      <trkpt lat="48.94836" lon="1.96435">
        <ele>140</ele>
        <time>2020-05-16T13:54:10Z</time>
      </trkpt>
      <trkpt lat="48.94846" lon="1.96429">
        <ele>139</ele>
        <time>2020-05-16T13:54:15Z</time>
      </trkpt>
      <trkpt lat="48.94855" lon="1.96421">
        <ele>138</ele>
        <time>2020-05-16T13:54:22Z</time>
      </trkpt>
      <trkpt lat="48.94863" lon="1.96411">
        <ele>135</ele>
        <time>2020-05-16T13:54:29Z</time>
      </trkpt>
      <trkpt lat="48.94871" lon="1.96403">
        <ele>134</ele>
        <time>2020-05-16T13:54:35Z</time>
      </trkpt>
      <trkpt lat="48.94879" lon="1.96394">
        <ele>133</ele>
        <time>2020-05-16T13:54:42Z</time>
      </trkpt>
      <trkpt lat="48.94886" lon="1.96382">
        <ele>131</ele>
        <time>2020-05-16T13:54:51Z</time>
      </trkpt>
      <trkpt lat="48.94891" lon="1.96371">
        <ele>129</ele>
        <time>2020-05-16T13:54:59Z</time>
      </trkpt>
      <trkpt lat="48.94897" lon="1.96358">
        <ele>128</ele>
        <time>2020-05-16T13:55:06Z</time>
      </trkpt>
      <trkpt lat="48.94904" lon="1.96347">
        <ele>126</ele>
        <time>2020-05-16T13:55:16Z</time>
      </trkpt>
      <trkpt lat="48.94911" lon="1.96339">
        <ele>125</ele>
        <time>2020-05-16T13:55:26Z</time>
      </trkpt>
      <trkpt lat="48.94919" lon="1.96331">
        <ele>125</ele>
        <time>2020-05-16T13:55:33Z</time>
      </trkpt>
      <trkpt lat="48.94927" lon="1.96323">
        <ele>124</ele>
        <time>2020-05-16T13:55:40Z</time>
      </trkpt>
      <trkpt lat="48.94934" lon="1.96313">
        <ele>123</ele>
        <time>2020-05-16T13:55:45Z</time>
      </trkpt>
      <trkpt lat="48.9494" lon="1.96303">
        <ele>123</ele>
        <time>2020-05-16T13:55:49Z</time>
      </trkpt>
      <trkpt lat="48.94948" lon="1.96294">
        <ele>123</ele>
        <time>2020-05-16T13:55:54Z</time>
      </trkpt>
      <trkpt lat="48.94955" lon="1.96285">
        <ele>123</ele>
        <time>2020-05-16T13:56:01Z</time>
      </trkpt>
      <trkpt lat="48.94963" lon="1.96275">
        <ele>123</ele>
        <time>2020-05-16T13:56:10Z</time>
      </trkpt>
      <trkpt lat="48.94971" lon="1.96267">
        <ele>124</ele>
        <time>2020-05-16T13:56:16Z</time>
      </trkpt>
      <trkpt lat="48.94978" lon="1.96258">
        <ele>124</ele>
        <time>2020-05-16T13:56:22Z</time>
      </trkpt>
      <trkpt lat="48.94988" lon="1.96253">
        <ele>125</ele>
        <time>2020-05-16T13:56:31Z</time>
      </trkpt>
      <trkpt lat="48.94995" lon="1.96243">
        <ele>125</ele>
        <time>2020-05-16T13:56:38Z</time>
      </trkpt>
      <trkpt lat="48.95" lon="1.96232">
        <ele>125</ele>
        <time>2020-05-16T13:56:45Z</time>
      </trkpt>
      <trkpt lat="48.95009" lon="1.96224">
        <ele>125</ele>
        <time>2020-05-16T13:56:51Z</time>
      </trkpt>
      <trkpt lat="48.95017" lon="1.96216">
        <ele>124</ele>
        <time>2020-05-16T13:56:57Z</time>
      </trkpt>
      <trkpt lat="48.95023" lon="1.96206">
        <ele>124</ele>
        <time>2020-05-16T13:57:21Z</time>
      </trkpt>
      <trkpt lat="48.95032" lon="1.96197">
        <ele>124</ele>
        <time>2020-05-16T13:57:30Z</time>
      </trkpt>
      <trkpt lat="48.95038" lon="1.96183">
        <ele>123</ele>
        <time>2020-05-16T13:57:41Z</time>
      </trkpt>
      <trkpt lat="48.95041" lon="1.96169">
        <ele>123</ele>
        <time>2020-05-16T13:57:50Z</time>
      </trkpt>
      <trkpt lat="48.95039" lon="1.96155">
        <ele>122</ele>
        <time>2020-05-16T13:58:10Z</time>
      </trkpt>
      <trkpt lat="48.95033" lon="1.96165">
        <ele>121</ele>
        <time>2020-05-16T13:59:18Z</time>
      </trkpt>
      <trkpt lat="48.95041" lon="1.96158">
        <ele>126</ele>
        <time>2020-05-16T14:00:37Z</time>
      </trkpt>
      <trkpt lat="48.95048" lon="1.96149">
        <ele>127</ele>
        <time>2020-05-16T14:00:43Z</time>
      </trkpt>
      <trkpt lat="48.95056" lon="1.96141">
        <ele>128</ele>
        <time>2020-05-16T14:00:54Z</time>
      </trkpt>
      <trkpt lat="48.95063" lon="1.96132">
        <ele>128</ele>
        <time>2020-05-16T14:01:02Z</time>
      </trkpt>
      <trkpt lat="48.9507" lon="1.96123">
        <ele>128</ele>
        <time>2020-05-16T14:01:10Z</time>
      </trkpt>
      <trkpt lat="48.95077" lon="1.96114">
        <ele>129</ele>
        <time>2020-05-16T14:01:18Z</time>
      </trkpt>
      <trkpt lat="48.95085" lon="1.96106">
        <ele>129</ele>
        <time>2020-05-16T14:01:25Z</time>
      </trkpt>
      <trkpt lat="48.95093" lon="1.961">
        <ele>130</ele>
        <time>2020-05-16T14:01:32Z</time>
      </trkpt>
      <trkpt lat="48.95101" lon="1.96091">
        <ele>130</ele>
        <time>2020-05-16T14:01:40Z</time>
      </trkpt>
      <trkpt lat="48.95101" lon="1.96076">
        <ele>128</ele>
        <time>2020-05-16T14:01:57Z</time>
      </trkpt>
      <trkpt lat="48.95113" lon="1.96064">
        <ele>127</ele>
        <time>2020-05-16T14:02:06Z</time>
      </trkpt>
      <trkpt lat="48.95122" lon="1.96056">
        <ele>126</ele>
        <time>2020-05-16T14:02:10Z</time>
      </trkpt>
      <trkpt lat="48.9512" lon="1.96041">
        <ele>126</ele>
        <time>2020-05-16T14:02:30Z</time>
      </trkpt>
      <trkpt lat="48.95114" lon="1.96029">
        <ele>126</ele>
        <time>2020-05-16T14:02:44Z</time>
      </trkpt>
      <trkpt lat="48.95107" lon="1.96019">
        <ele>127</ele>
        <time>2020-05-16T14:02:53Z</time>
      </trkpt>
      <trkpt lat="48.95113" lon="1.96032">
        <ele>127</ele>
        <time>2020-05-16T14:03:09Z</time>
      </trkpt>
      <trkpt lat="48.95119" lon="1.96043">
        <ele>127</ele>
        <time>2020-05-16T14:03:17Z</time>
      </trkpt>
      <trkpt lat="48.95126" lon="1.96053">
        <ele>127</ele>
        <time>2020-05-16T14:03:29Z</time>
      </trkpt>
      <trkpt lat="48.95135" lon="1.96045">
        <ele>127</ele>
        <time>2020-05-16T14:03:42Z</time>
      </trkpt>
      <trkpt lat="48.95145" lon="1.9604">
        <ele>127</ele>
        <time>2020-05-16T14:03:51Z</time>
      </trkpt>
      <trkpt lat="48.95153" lon="1.9603">
        <ele>127</ele>
        <time>2020-05-16T14:03:58Z</time>
      </trkpt>
      <trkpt lat="48.95161" lon="1.96019">
        <ele>127</ele>
        <time>2020-05-16T14:04:07Z</time>
      </trkpt>
      <trkpt lat="48.95168" lon="1.96011">
        <ele>126</ele>
        <time>2020-05-16T14:04:15Z</time>
      </trkpt>
      <trkpt lat="48.95177" lon="1.96004">
        <ele>125</ele>
        <time>2020-05-16T14:04:23Z</time>
      </trkpt>
      <trkpt lat="48.95182" lon="1.95991">
        <ele>124</ele>
        <time>2020-05-16T14:04:30Z</time>
      </trkpt>
      <trkpt lat="48.95181" lon="1.95976">
        <ele>123</ele>
        <time>2020-05-16T14:04:40Z</time>
      </trkpt>
      <trkpt lat="48.95174" lon="1.95966">
        <ele>122</ele>
        <time>2020-05-16T14:04:47Z</time>
      </trkpt>
      <trkpt lat="48.95167" lon="1.95956">
        <ele>121</ele>
        <time>2020-05-16T14:04:58Z</time>
      </trkpt>
      <trkpt lat="48.95162" lon="1.95944">
        <ele>121</ele>
        <time>2020-05-16T14:05:12Z</time>
      </trkpt>
      <trkpt lat="48.95155" lon="1.95932">
        <ele>121</ele>
        <time>2020-05-16T14:05:17Z</time>
      </trkpt>
      <trkpt lat="48.95149" lon="1.95919">
        <ele>121</ele>
        <time>2020-05-16T14:05:24Z</time>
      </trkpt>
      <trkpt lat="48.95142" lon="1.9591">
        <ele>122</ele>
        <time>2020-05-16T14:05:33Z</time>
      </trkpt>
      <trkpt lat="48.95138" lon="1.95897">
        <ele>122</ele>
        <time>2020-05-16T14:05:41Z</time>
      </trkpt>
      <trkpt lat="48.95135" lon="1.95884">
        <ele>121</ele>
        <time>2020-05-16T14:05:47Z</time>
      </trkpt>
      <trkpt lat="48.95131" lon="1.95871">
        <ele>120</ele>
        <time>2020-05-16T14:05:58Z</time>
      </trkpt>
      <trkpt lat="48.95126" lon="1.95859">
        <ele>119</ele>
        <time>2020-05-16T14:06:08Z</time>
      </trkpt>
      <trkpt lat="48.95121" lon="1.95845">
        <ele>118</ele>
        <time>2020-05-16T14:06:14Z</time>
      </trkpt>
      <trkpt lat="48.95118" lon="1.95832">
        <ele>117</ele>
        <time>2020-05-16T14:06:24Z</time>
      </trkpt>
      <trkpt lat="48.95114" lon="1.95818">
        <ele>117</ele>
        <time>2020-05-16T14:06:33Z</time>
      </trkpt>
      <trkpt lat="48.9511" lon="1.95805">
        <ele>117</ele>
        <time>2020-05-16T14:06:43Z</time>
      </trkpt>
      <trkpt lat="48.95106" lon="1.95791">
        <ele>116</ele>
        <time>2020-05-16T14:06:51Z</time>
      </trkpt>
      <trkpt lat="48.95101" lon="1.95779">
        <ele>116</ele>
        <time>2020-05-16T14:06:59Z</time>
      </trkpt>
      <trkpt lat="48.95096" lon="1.95767">
        <ele>116</ele>
        <time>2020-05-16T14:07:08Z</time>
      </trkpt>
      <trkpt lat="48.95091" lon="1.95754">
        <ele>116</ele>
        <time>2020-05-16T14:07:19Z</time>
      </trkpt>
      <trkpt lat="48.95084" lon="1.95746">
        <ele>117</ele>
        <time>2020-05-16T14:07:25Z</time>
      </trkpt>
      <trkpt lat="48.9508" lon="1.95733">
        <ele>117</ele>
        <time>2020-05-16T14:07:34Z</time>
      </trkpt>
      <trkpt lat="48.95076" lon="1.9572">
        <ele>114</ele>
        <time>2020-05-16T14:07:54Z</time>
      </trkpt>
      <trkpt lat="48.95071" lon="1.95707">
        <ele>112</ele>
        <time>2020-05-16T14:08:07Z</time>
      </trkpt>
      <trkpt lat="48.95065" lon="1.95696">
        <ele>109</ele>
        <time>2020-05-16T14:08:17Z</time>
      </trkpt>
      <trkpt lat="48.95059" lon="1.95684">
        <ele>106</ele>
        <time>2020-05-16T14:08:26Z</time>
      </trkpt>
      <trkpt lat="48.95053" lon="1.95673">
        <ele>103</ele>
        <time>2020-05-16T14:08:39Z</time>
      </trkpt>
      <trkpt lat="48.95045" lon="1.95666">
        <ele>103</ele>
        <time>2020-05-16T14:08:44Z</time>
      </trkpt>
      <trkpt lat="48.95037" lon="1.95657">
        <ele>104</ele>
        <time>2020-05-16T14:08:54Z</time>
      </trkpt>
      <trkpt lat="48.95034" lon="1.95644">
        <ele>105</ele>
        <time>2020-05-16T14:09:04Z</time>
      </trkpt>
      <trkpt lat="48.95027" lon="1.95633">
        <ele>105</ele>
        <time>2020-05-16T14:10:05Z</time>
      </trkpt>
      <trkpt lat="48.95023" lon="1.95618">
        <ele>108</ele>
        <time>2020-05-16T14:10:14Z</time>
      </trkpt>
      <trkpt lat="48.95016" lon="1.9561">
        <ele>109</ele>
        <time>2020-05-16T14:10:25Z</time>
      </trkpt>
      <trkpt lat="48.95009" lon="1.95597">
        <ele>109</ele>
        <time>2020-05-16T14:10:33Z</time>
      </trkpt>
      <trkpt lat="48.95003" lon="1.95586">
        <ele>109</ele>
        <time>2020-05-16T14:10:39Z</time>
      </trkpt>
      <trkpt lat="48.94996" lon="1.95577">
        <ele>108</ele>
        <time>2020-05-16T14:10:44Z</time>
      </trkpt>
      <trkpt lat="48.94989" lon="1.95568">
        <ele>108</ele>
        <time>2020-05-16T14:10:53Z</time>
      </trkpt>
      <trkpt lat="48.94979" lon="1.95561">
        <ele>106</ele>
        <time>2020-05-16T14:11:03Z</time>
      </trkpt>
      <trkpt lat="48.9497" lon="1.95553">
        <ele>105</ele>
        <time>2020-05-16T14:11:09Z</time>
      </trkpt>
      <trkpt lat="48.94964" lon="1.95543">
        <ele>104</ele>
        <time>2020-05-16T14:11:18Z</time>
      </trkpt>
      <trkpt lat="48.94956" lon="1.95534">
        <ele>101</ele>
        <time>2020-05-16T14:11:35Z</time>
      </trkpt>
      <trkpt lat="48.94949" lon="1.95524">
        <ele>100</ele>
        <time>2020-05-16T14:11:42Z</time>
      </trkpt>
      <trkpt lat="48.94942" lon="1.95514">
        <ele>99</ele>
        <time>2020-05-16T14:11:52Z</time>
      </trkpt>
      <trkpt lat="48.94935" lon="1.95503">
        <ele>99</ele>
        <time>2020-05-16T14:11:58Z</time>
      </trkpt>
      <trkpt lat="48.94928" lon="1.95494">
        <ele>99</ele>
        <time>2020-05-16T14:12:06Z</time>
      </trkpt>
      <trkpt lat="48.94921" lon="1.95485">
        <ele>98</ele>
        <time>2020-05-16T14:12:16Z</time>
      </trkpt>
      <trkpt lat="48.94914" lon="1.95475">
        <ele>97</ele>
        <time>2020-05-16T14:12:25Z</time>
      </trkpt>
      <trkpt lat="48.94908" lon="1.95463">
        <ele>96</ele>
        <time>2020-05-16T14:12:36Z</time>
      </trkpt>
      <trkpt lat="48.94902" lon="1.9545">
        <ele>95</ele>
        <time>2020-05-16T14:12:44Z</time>
      </trkpt>
      <trkpt lat="48.94893" lon="1.95441">
        <ele>93</ele>
        <time>2020-05-16T14:12:50Z</time>
      </trkpt>
      <trkpt lat="48.94885" lon="1.95435">
        <ele>92</ele>
        <time>2020-05-16T14:12:57Z</time>
      </trkpt>
      <trkpt lat="48.94877" lon="1.95427">
        <ele>91</ele>
        <time>2020-05-16T14:13:04Z</time>
      </trkpt>
      <trkpt lat="48.94871" lon="1.95414">
        <ele>89</ele>
        <time>2020-05-16T14:13:14Z</time>
      </trkpt>
      <trkpt lat="48.94863" lon="1.95404">
        <ele>88</ele>
        <time>2020-05-16T14:13:22Z</time>
      </trkpt>
      <trkpt lat="48.94856" lon="1.95394">
        <ele>87</ele>
        <time>2020-05-16T14:13:31Z</time>
      </trkpt>
      <trkpt lat="48.94848" lon="1.95383">
        <ele>86</ele>
        <time>2020-05-16T14:13:39Z</time>
      </trkpt>
      <trkpt lat="48.94842" lon="1.95372">
        <ele>86</ele>
        <time>2020-05-16T14:13:46Z</time>
      </trkpt>
      <trkpt lat="48.94834" lon="1.95362">
        <ele>85</ele>
        <time>2020-05-16T14:13:53Z</time>
      </trkpt>
      <trkpt lat="48.94828" lon="1.95352">
        <ele>85</ele>
        <time>2020-05-16T14:14:01Z</time>
      </trkpt>
      <trkpt lat="48.94821" lon="1.95342">
        <ele>84</ele>
        <time>2020-05-16T14:14:09Z</time>
      </trkpt>
      <trkpt lat="48.94815" lon="1.95331">
        <ele>84</ele>
        <time>2020-05-16T14:14:17Z</time>
      </trkpt>
      <trkpt lat="48.94808" lon="1.95321">
        <ele>83</ele>
        <time>2020-05-16T14:14:25Z</time>
      </trkpt>
      <trkpt lat="48.94802" lon="1.9531">
        <ele>83</ele>
        <time>2020-05-16T14:14:34Z</time>
      </trkpt>
      <trkpt lat="48.94797" lon="1.95297">
        <ele>83</ele>
        <time>2020-05-16T14:14:42Z</time>
      </trkpt>
      <trkpt lat="48.94792" lon="1.95286">
        <ele>83</ele>
        <time>2020-05-16T14:14:48Z</time>
      </trkpt>
      <trkpt lat="48.94787" lon="1.95274">
        <ele>82</ele>
        <time>2020-05-16T14:14:55Z</time>
      </trkpt>
      <trkpt lat="48.9478" lon="1.95262">
        <ele>82</ele>
        <time>2020-05-16T14:15:03Z</time>
      </trkpt>
      <trkpt lat="48.94773" lon="1.95253">
        <ele>82</ele>
        <time>2020-05-16T14:15:11Z</time>
      </trkpt>
      <trkpt lat="48.94767" lon="1.95242">
        <ele>81</ele>
        <time>2020-05-16T14:15:19Z</time>
      </trkpt>
      <trkpt lat="48.9476" lon="1.95232">
        <ele>81</ele>
        <time>2020-05-16T14:15:27Z</time>
      </trkpt>
      <trkpt lat="48.94752" lon="1.95223">
        <ele>80</ele>
        <time>2020-05-16T14:15:34Z</time>
      </trkpt>
      <trkpt lat="48.94745" lon="1.95212">
        <ele>79</ele>
        <time>2020-05-16T14:15:47Z</time>
      </trkpt>
      <trkpt lat="48.94737" lon="1.95204">
        <ele>80</ele>
        <time>2020-05-16T14:18:24Z</time>
      </trkpt>
      <trkpt lat="48.9473" lon="1.95191">
        <ele>81</ele>
        <time>2020-05-16T14:18:39Z</time>
      </trkpt>
      <trkpt lat="48.94722" lon="1.95182">
        <ele>81</ele>
        <time>2020-05-16T14:18:46Z</time>
      </trkpt>
      <trkpt lat="48.94715" lon="1.95173">
        <ele>80</ele>
        <time>2020-05-16T14:19:07Z</time>
      </trkpt>
      <trkpt lat="48.94706" lon="1.95175">
        <ele>80</ele>
        <time>2020-05-16T14:19:39Z</time>
      </trkpt>
      <trkpt lat="48.94697" lon="1.95182">
        <ele>80</ele>
        <time>2020-05-16T14:19:45Z</time>
      </trkpt>
      <trkpt lat="48.94688" lon="1.95188">
        <ele>80</ele>
        <time>2020-05-16T14:19:55Z</time>
      </trkpt>
      <trkpt lat="48.94679" lon="1.95193">
        <ele>80</ele>
        <time>2020-05-16T14:20:04Z</time>
      </trkpt>
      <trkpt lat="48.94672" lon="1.95205">
        <ele>79</ele>
        <time>2020-05-16T14:20:17Z</time>
      </trkpt>
      <trkpt lat="48.94668" lon="1.95218">
        <ele>79</ele>
        <time>2020-05-16T14:20:25Z</time>
      </trkpt>
      <trkpt lat="48.9466" lon="1.95227">
        <ele>78</ele>
        <time>2020-05-16T14:20:33Z</time>
      </trkpt>
      <trkpt lat="48.94654" lon="1.95238">
        <ele>78</ele>
        <time>2020-05-16T14:20:40Z</time>
      </trkpt>
      <trkpt lat="48.94648" lon="1.95248">
        <ele>78</ele>
        <time>2020-05-16T14:20:48Z</time>
      </trkpt>
      <trkpt lat="48.94644" lon="1.95261">
        <ele>78</ele>
        <time>2020-05-16T14:20:57Z</time>
      </trkpt>
      <trkpt lat="48.9464" lon="1.95274">
        <ele>77</ele>
        <time>2020-05-16T14:21:07Z</time>
      </trkpt>
      <trkpt lat="48.94636" lon="1.95287">
        <ele>76</ele>
        <time>2020-05-16T14:21:16Z</time>
      </trkpt>
      <trkpt lat="48.94633" lon="1.95301">
        <ele>76</ele>
        <time>2020-05-16T14:21:27Z</time>
      </trkpt>
      <trkpt lat="48.94629" lon="1.95314">
        <ele>76</ele>
        <time>2020-05-16T14:21:34Z</time>
      </trkpt>
      <trkpt lat="48.94626" lon="1.95329">
        <ele>76</ele>
        <time>2020-05-16T14:21:41Z</time>
      </trkpt>
      <trkpt lat="48.94622" lon="1.95341">
        <ele>75</ele>
        <time>2020-05-16T14:21:49Z</time>
      </trkpt>
      <trkpt lat="48.94618" lon="1.95354">
        <ele>75</ele>
        <time>2020-05-16T14:21:58Z</time>
      </trkpt>
      <trkpt lat="48.94616" lon="1.95369">
        <ele>75</ele>
        <time>2020-05-16T14:22:05Z</time>
      </trkpt>
      <trkpt lat="48.94609" lon="1.95381">
        <ele>75</ele>
        <time>2020-05-16T14:22:14Z</time>
      </trkpt>
      <trkpt lat="48.94608" lon="1.95397">
        <ele>74</ele>
        <time>2020-05-16T14:22:26Z</time>
      </trkpt>
      <trkpt lat="48.94607" lon="1.95412">
        <ele>74</ele>
        <time>2020-05-16T14:22:34Z</time>
      </trkpt>
      <trkpt lat="48.94605" lon="1.95427">
        <ele>74</ele>
        <time>2020-05-16T14:22:42Z</time>
      </trkpt>
      <trkpt lat="48.94603" lon="1.95443">
        <ele>74</ele>
        <time>2020-05-16T14:22:50Z</time>
      </trkpt>
      <trkpt lat="48.94598" lon="1.95456">
        <ele>75</ele>
        <time>2020-05-16T14:22:57Z</time>
      </trkpt>
      <trkpt lat="48.94598" lon="1.95471">
        <ele>75</ele>
        <time>2020-05-16T14:23:05Z</time>
      </trkpt>
      <trkpt lat="48.94594" lon="1.95486">
        <ele>75</ele>
        <time>2020-05-16T14:23:13Z</time>
      </trkpt>
      <trkpt lat="48.9459" lon="1.955">
        <ele>76</ele>
        <time>2020-05-16T14:23:22Z</time>
      </trkpt>
      <trkpt lat="48.94588" lon="1.95513">
        <ele>76</ele>
        <time>2020-05-16T14:23:30Z</time>
      </trkpt>
      <trkpt lat="48.94583" lon="1.95525">
        <ele>77</ele>
        <time>2020-05-16T14:23:38Z</time>
      </trkpt>
      <trkpt lat="48.94577" lon="1.95538">
        <ele>77</ele>
        <time>2020-05-16T14:23:47Z</time>
      </trkpt>
      <trkpt lat="48.94574" lon="1.95553">
        <ele>77</ele>
        <time>2020-05-16T14:23:55Z</time>
      </trkpt>
      <trkpt lat="48.9457" lon="1.95567">
        <ele>77</ele>
        <time>2020-05-16T14:24:02Z</time>
      </trkpt>
      <trkpt lat="48.94569" lon="1.95583">
        <ele>77</ele>
        <time>2020-05-16T14:24:15Z</time>
      </trkpt>
      <trkpt lat="48.94563" lon="1.95592">
        <ele>77</ele>
        <time>2020-05-16T14:24:25Z</time>
      </trkpt>
      <trkpt lat="48.94557" lon="1.95604">
        <ele>77</ele>
        <time>2020-05-16T14:24:33Z</time>
      </trkpt>
      <trkpt lat="48.94552" lon="1.95617">
        <ele>77</ele>
        <time>2020-05-16T14:24:42Z</time>
      </trkpt>
      <trkpt lat="48.94546" lon="1.9563">
        <ele>77</ele>
        <time>2020-05-16T14:24:49Z</time>
      </trkpt>
      <trkpt lat="48.94538" lon="1.95639">
        <ele>78</ele>
        <time>2020-05-16T14:24:55Z</time>
      </trkpt>
      <trkpt lat="48.94533" lon="1.95652">
        <ele>79</ele>
        <time>2020-05-16T14:25:02Z</time>
      </trkpt>
      <trkpt lat="48.94527" lon="1.95662">
        <ele>79</ele>
        <time>2020-05-16T14:25:10Z</time>
      </trkpt>
      <trkpt lat="48.94521" lon="1.95672">
        <ele>80</ele>
        <time>2020-05-16T14:25:19Z</time>
      </trkpt>
      <trkpt lat="48.94513" lon="1.95683">
        <ele>81</ele>
        <time>2020-05-16T14:25:28Z</time>
      </trkpt>
      <trkpt lat="48.94508" lon="1.95695">
        <ele>81</ele>
        <time>2020-05-16T14:25:37Z</time>
      </trkpt>
      <trkpt lat="48.94502" lon="1.95707">
        <ele>81</ele>
        <time>2020-05-16T14:25:45Z</time>
      </trkpt>
      <trkpt lat="48.94499" lon="1.9572">
        <ele>81</ele>
        <time>2020-05-16T14:25:54Z</time>
      </trkpt>
      <trkpt lat="48.94496" lon="1.95735">
        <ele>82</ele>
        <time>2020-05-16T14:26:08Z</time>
      </trkpt>
      <trkpt lat="48.94494" lon="1.95748">
        <ele>83</ele>
        <time>2020-05-16T14:26:16Z</time>
      </trkpt>
      <trkpt lat="48.94491" lon="1.95762">
        <ele>83</ele>
        <time>2020-05-16T14:26:25Z</time>
      </trkpt>
      <trkpt lat="48.94485" lon="1.95773">
        <ele>83</ele>
        <time>2020-05-16T14:26:33Z</time>
      </trkpt>
      <trkpt lat="48.94481" lon="1.95786">
        <ele>84</ele>
        <time>2020-05-16T14:26:42Z</time>
      </trkpt>
      <trkpt lat="48.94478" lon="1.958">
        <ele>84</ele>
        <time>2020-05-16T14:26:50Z</time>
      </trkpt>
      <trkpt lat="48.94473" lon="1.95813">
        <ele>84</ele>
        <time>2020-05-16T14:26:59Z</time>
      </trkpt>
      <trkpt lat="48.94468" lon="1.95824">
        <ele>84</ele>
        <time>2020-05-16T14:27:07Z</time>
      </trkpt>
      <trkpt lat="48.94464" lon="1.95838">
        <ele>85</ele>
        <time>2020-05-16T14:27:16Z</time>
      </trkpt>
      <trkpt lat="48.9446" lon="1.9585">
        <ele>85</ele>
        <time>2020-05-16T14:27:23Z</time>
      </trkpt>
      <trkpt lat="48.94455" lon="1.95863">
        <ele>86</ele>
        <time>2020-05-16T14:27:31Z</time>
      </trkpt>
      <trkpt lat="48.94449" lon="1.95873">
        <ele>87</ele>
        <time>2020-05-16T14:27:40Z</time>
      </trkpt>
      <trkpt lat="48.94444" lon="1.95885">
        <ele>87</ele>
        <time>2020-05-16T14:27:48Z</time>
      </trkpt>
      <trkpt lat="48.9444" lon="1.95899">
        <ele>88</ele>
        <time>2020-05-16T14:27:57Z</time>
      </trkpt>
      <trkpt lat="48.94435" lon="1.95911">
        <ele>87</ele>
        <time>2020-05-16T14:28:06Z</time>
      </trkpt>
      <trkpt lat="48.9443" lon="1.95923">
        <ele>87</ele>
        <time>2020-05-16T14:28:14Z</time>
      </trkpt>
      <trkpt lat="48.94425" lon="1.95935">
        <ele>87</ele>
        <time>2020-05-16T14:28:22Z</time>
      </trkpt>
      <trkpt lat="48.94418" lon="1.95945">
        <ele>88</ele>
        <time>2020-05-16T14:28:30Z</time>
      </trkpt>
      <trkpt lat="48.94411" lon="1.95954">
        <ele>88</ele>
        <time>2020-05-16T14:28:37Z</time>
      </trkpt>
      <trkpt lat="48.94405" lon="1.95967">
        <ele>89</ele>
        <time>2020-05-16T14:28:47Z</time>
      </trkpt>
      <trkpt lat="48.94401" lon="1.9598">
        <ele>90</ele>
        <time>2020-05-16T14:28:58Z</time>
      </trkpt>
      <trkpt lat="48.94396" lon="1.95991">
        <ele>91</ele>
        <time>2020-05-16T14:29:05Z</time>
      </trkpt>
      <trkpt lat="48.9439" lon="1.96003">
        <ele>91</ele>
        <time>2020-05-16T14:29:14Z</time>
      </trkpt>
      <trkpt lat="48.94385" lon="1.96014">
        <ele>91</ele>
        <time>2020-05-16T14:29:22Z</time>
      </trkpt>
      <trkpt lat="48.94379" lon="1.96025">
        <ele>91</ele>
        <time>2020-05-16T14:29:32Z</time>
      </trkpt>
      <trkpt lat="48.94372" lon="1.96034">
        <ele>91</ele>
        <time>2020-05-16T14:29:39Z</time>
      </trkpt>
      <trkpt lat="48.94365" lon="1.96045">
        <ele>92</ele>
        <time>2020-05-16T14:29:47Z</time>
      </trkpt>
      <trkpt lat="48.94358" lon="1.96055">
        <ele>93</ele>
        <time>2020-05-16T14:29:57Z</time>
      </trkpt>
      <trkpt lat="48.94353" lon="1.96067">
        <ele>93</ele>
        <time>2020-05-16T14:30:09Z</time>
      </trkpt>
      <trkpt lat="48.94348" lon="1.96079">
        <ele>94</ele>
        <time>2020-05-16T14:30:21Z</time>
      </trkpt>
      <trkpt lat="48.94345" lon="1.96093">
        <ele>95</ele>
        <time>2020-05-16T14:30:31Z</time>
      </trkpt>
      <trkpt lat="48.94345" lon="1.96107">
        <ele>96</ele>
        <time>2020-05-16T14:30:41Z</time>
      </trkpt>
      <trkpt lat="48.94346" lon="1.96124">
        <ele>97</ele>
        <time>2020-05-16T14:30:49Z</time>
      </trkpt>
      <trkpt lat="48.94348" lon="1.96138">
        <ele>97</ele>
        <time>2020-05-16T14:30:57Z</time>
      </trkpt>
      <trkpt lat="48.94346" lon="1.96153">
        <ele>98</ele>
        <time>2020-05-16T14:31:05Z</time>
      </trkpt>
      <trkpt lat="48.94349" lon="1.96167">
        <ele>98</ele>
        <time>2020-05-16T14:31:13Z</time>
      </trkpt>
      <trkpt lat="48.9435" lon="1.96182">
        <ele>99</ele>
        <time>2020-05-16T14:31:22Z</time>
      </trkpt>
      <trkpt lat="48.9435" lon="1.96196">
        <ele>100</ele>
        <time>2020-05-16T14:31:31Z</time>
      </trkpt>
      <trkpt lat="48.94351" lon="1.96211">
        <ele>100</ele>
        <time>2020-05-16T14:31:38Z</time>
      </trkpt>
      <trkpt lat="48.94351" lon="1.96225">
        <ele>101</ele>
        <time>2020-05-16T14:31:45Z</time>
      </trkpt>
      <trkpt lat="48.94348" lon="1.96239">
        <ele>101</ele>
        <time>2020-05-16T14:31:54Z</time>
      </trkpt>
      <trkpt lat="48.94343" lon="1.96252">
        <ele>102</ele>
        <time>2020-05-16T14:32:01Z</time>
      </trkpt>
      <trkpt lat="48.94336" lon="1.96264">
        <ele>102</ele>
        <time>2020-05-16T14:32:09Z</time>
      </trkpt>
      <trkpt lat="48.94331" lon="1.96276">
        <ele>103</ele>
        <time>2020-05-16T14:32:17Z</time>
      </trkpt>
      <trkpt lat="48.94326" lon="1.96288">
        <ele>103</ele>
        <time>2020-05-16T14:32:25Z</time>
      </trkpt>
      <trkpt lat="48.94318" lon="1.96298">
        <ele>103</ele>
        <time>2020-05-16T14:32:33Z</time>
      </trkpt>
      <trkpt lat="48.94311" lon="1.96309">
        <ele>104</ele>
        <time>2020-05-16T14:32:41Z</time>
      </trkpt>
      <trkpt lat="48.94304" lon="1.96319">
        <ele>104</ele>
        <time>2020-05-16T14:32:49Z</time>
      </trkpt>
      <trkpt lat="48.94295" lon="1.96327">
        <ele>104</ele>
        <time>2020-05-16T14:32:56Z</time>
      </trkpt>
      <trkpt lat="48.94288" lon="1.96338">
        <ele>104</ele>
        <time>2020-05-16T14:33:04Z</time>
      </trkpt>
      <trkpt lat="48.94284" lon="1.96351">
        <ele>105</ele>
        <time>2020-05-16T14:33:12Z</time>
      </trkpt>
      <trkpt lat="48.94276" lon="1.9636">
        <ele>105</ele>
        <time>2020-05-16T14:33:20Z</time>
      </trkpt>
      <trkpt lat="48.9427" lon="1.9637">
        <ele>105</ele>
        <time>2020-05-16T14:33:27Z</time>
      </trkpt>
      <trkpt lat="48.94263" lon="1.9638">
        <ele>105</ele>
        <time>2020-05-16T14:33:35Z</time>
      </trkpt>
      <trkpt lat="48.94257" lon="1.9639">
        <ele>106</ele>
        <time>2020-05-16T14:33:43Z</time>
      </trkpt>
      <trkpt lat="48.9425" lon="1.96399">
        <ele>106</ele>
        <time>2020-05-16T14:33:49Z</time>
      </trkpt>
      <trkpt lat="48.94242" lon="1.96407">
        <ele>106</ele>
        <time>2020-05-16T14:33:58Z</time>
      </trkpt>
      <trkpt lat="48.94236" lon="1.96417">
        <ele>107</ele>
        <time>2020-05-16T14:34:06Z</time>
      </trkpt>
      <trkpt lat="48.9423" lon="1.96429">
        <ele>108</ele>
        <time>2020-05-16T14:34:14Z</time>
      </trkpt>
      <trkpt lat="48.94223" lon="1.96439">
        <ele>108</ele>
        <time>2020-05-16T14:34:22Z</time>
      </trkpt>
      <trkpt lat="48.94213" lon="1.96443">
        <ele>109</ele>
        <time>2020-05-16T14:34:30Z</time>
      </trkpt>
      <trkpt lat="48.94206" lon="1.96434">
        <ele>110</ele>
        <time>2020-05-16T14:34:38Z</time>
      </trkpt>
      <trkpt lat="48.942" lon="1.96423">
        <ele>112</ele>
        <time>2020-05-16T14:34:47Z</time>
      </trkpt>
      <trkpt lat="48.94194" lon="1.96411">
        <ele>113</ele>
        <time>2020-05-16T14:34:55Z</time>
      </trkpt>
      <trkpt lat="48.9419" lon="1.96399">
        <ele>114</ele>
        <time>2020-05-16T14:35:05Z</time>
      </trkpt>
      <trkpt lat="48.94182" lon="1.9639">
        <ele>115</ele>
        <time>2020-05-16T14:35:11Z</time>
      </trkpt>
      <trkpt lat="48.94177" lon="1.96378">
        <ele>115</ele>
        <time>2020-05-16T14:35:19Z</time>
      </trkpt>
      <trkpt lat="48.9417" lon="1.96368">
        <ele>115</ele>
        <time>2020-05-16T14:35:28Z</time>
      </trkpt>
      <trkpt lat="48.94165" lon="1.96357">
        <ele>116</ele>
        <time>2020-05-16T14:35:35Z</time>
      </trkpt>
      <trkpt lat="48.94159" lon="1.96346">
        <ele>116</ele>
        <time>2020-05-16T14:35:44Z</time>
      </trkpt>
      <trkpt lat="48.94155" lon="1.96333">
        <ele>117</ele>
        <time>2020-05-16T14:35:59Z</time>
      </trkpt>
      <trkpt lat="48.94147" lon="1.96328">
        <ele>120</ele>
        <time>2020-05-16T14:37:08Z</time>
      </trkpt>
      <trkpt lat="48.9414" lon="1.96317">
        <ele>121</ele>
        <time>2020-05-16T14:37:16Z</time>
      </trkpt>
      <trkpt lat="48.9413" lon="1.96314">
        <ele>120</ele>
        <time>2020-05-16T14:37:24Z</time>
      </trkpt>
      <trkpt lat="48.94121" lon="1.9632">
        <ele>120</ele>
        <time>2020-05-16T14:37:34Z</time>
      </trkpt>
      <trkpt lat="48.94112" lon="1.96322">
        <ele>119</ele>
        <time>2020-05-16T14:37:45Z</time>
      </trkpt>
      <trkpt lat="48.94103" lon="1.96315">
        <ele>119</ele>
        <time>2020-05-16T14:37:50Z</time>
      </trkpt>
      <trkpt lat="48.94094" lon="1.96311">
        <ele>119</ele>
        <time>2020-05-16T14:37:56Z</time>
      </trkpt>
      <trkpt lat="48.94085" lon="1.96306">
        <ele>119</ele>
        <time>2020-05-16T14:38:01Z</time>
      </trkpt>
      <trkpt lat="48.94076" lon="1.96302">
        <ele>119</ele>
        <time>2020-05-16T14:38:07Z</time>
      </trkpt>
      <trkpt lat="48.94066" lon="1.96301">
        <ele>120</ele>
        <time>2020-05-16T14:38:15Z</time>
      </trkpt>
      <trkpt lat="48.94057" lon="1.96302">
        <ele>120</ele>
        <time>2020-05-16T14:38:23Z</time>
      </trkpt>
      <trkpt lat="48.94047" lon="1.96303">
        <ele>121</ele>
        <time>2020-05-16T14:38:31Z</time>
      </trkpt>
      <trkpt lat="48.94037" lon="1.96303">
        <ele>121</ele>
        <time>2020-05-16T14:38:39Z</time>
      </trkpt>
      <trkpt lat="48.94028" lon="1.96298">
        <ele>121</ele>
        <time>2020-05-16T14:38:46Z</time>
      </trkpt>
      <trkpt lat="48.94019" lon="1.96295">
        <ele>121</ele>
        <time>2020-05-16T14:38:52Z</time>
      </trkpt>
      <trkpt lat="48.94011" lon="1.9629">
        <ele>120</ele>
        <time>2020-05-16T14:39:03Z</time>
      </trkpt>
      <trkpt lat="48.94001" lon="1.96289">
        <ele>120</ele>
        <time>2020-05-16T14:39:13Z</time>
      </trkpt>
      <trkpt lat="48.93992" lon="1.96283">
        <ele>120</ele>
        <time>2020-05-16T14:39:19Z</time>
      </trkpt>
      <trkpt lat="48.93981" lon="1.96281">
        <ele>120</ele>
        <time>2020-05-16T14:39:26Z</time>
      </trkpt>
      <trkpt lat="48.93972" lon="1.96278">
        <ele>120</ele>
        <time>2020-05-16T14:39:32Z</time>
      </trkpt>
      <trkpt lat="48.93963" lon="1.96275">
        <ele>120</ele>
        <time>2020-05-16T14:39:40Z</time>
      </trkpt>
      <trkpt lat="48.93954" lon="1.96269">
        <ele>119</ele>
        <time>2020-05-16T14:39:48Z</time>
      </trkpt>
      <trkpt lat="48.93945" lon="1.96263">
        <ele>119</ele>
        <time>2020-05-16T14:40:00Z</time>
      </trkpt>
      <trkpt lat="48.93937" lon="1.96256">
        <ele>119</ele>
        <time>2020-05-16T14:40:07Z</time>
      </trkpt>
      <trkpt lat="48.93928" lon="1.96257">
        <ele>118</ele>
        <time>2020-05-16T14:40:16Z</time>
      </trkpt>
      <trkpt lat="48.93918" lon="1.96262">
        <ele>118</ele>
        <time>2020-05-16T14:40:24Z</time>
      </trkpt>
      <trkpt lat="48.93908" lon="1.96267">
        <ele>118</ele>
        <time>2020-05-16T14:40:30Z</time>
      </trkpt>
      <trkpt lat="48.93901" lon="1.96275">
        <ele>117</ele>
        <time>2020-05-16T14:40:37Z</time>
      </trkpt>
      <trkpt lat="48.93892" lon="1.96283">
        <ele>117</ele>
        <time>2020-05-16T14:40:44Z</time>
      </trkpt>
      <trkpt lat="48.93885" lon="1.96294">
        <ele>116</ele>
        <time>2020-05-16T14:40:51Z</time>
      </trkpt>
      <trkpt lat="48.93879" lon="1.96306">
        <ele>116</ele>
        <time>2020-05-16T14:40:59Z</time>
      </trkpt>
      <trkpt lat="48.93875" lon="1.9632">
        <ele>115</ele>
        <time>2020-05-16T14:41:07Z</time>
      </trkpt>
      <trkpt lat="48.93877" lon="1.96335">
        <ele>110</ele>
        <time>2020-05-16T14:41:23Z</time>
      </trkpt>
      <trkpt lat="48.93875" lon="1.96349">
        <ele>105</ele>
        <time>2020-05-16T14:41:33Z</time>
      </trkpt>
      <trkpt lat="48.93874" lon="1.96368">
        <ele>100</ele>
        <time>2020-05-16T14:41:42Z</time>
      </trkpt>
      <trkpt lat="48.93867" lon="1.96379">
        <ele>97</ele>
        <time>2020-05-16T14:41:50Z</time>
      </trkpt>
      <trkpt lat="48.93873" lon="1.9639">
        <ele>94</ele>
        <time>2020-05-16T14:42:04Z</time>
      </trkpt>
      <trkpt lat="48.93883" lon="1.96393">
        <ele>91</ele>
        <time>2020-05-16T14:42:14Z</time>
      </trkpt>
      <trkpt lat="48.93892" lon="1.96393">
        <ele>88</ele>
        <time>2020-05-16T14:42:24Z</time>
      </trkpt>
      <trkpt lat="48.93901" lon="1.96393">
        <ele>85</ele>
        <time>2020-05-16T14:42:32Z</time>
      </trkpt>
      <trkpt lat="48.9391" lon="1.96399">
        <ele>81</ele>
        <time>2020-05-16T14:42:40Z</time>
      </trkpt>
      <trkpt lat="48.93908" lon="1.96415">
        <ele>81</ele>
        <time>2020-05-16T14:42:42Z</time>
      </trkpt>
      <trkpt lat="48.93913" lon="1.96428">
        <ele>81</ele>
        <time>2020-05-16T14:42:47Z</time>
      </trkpt>
      <trkpt lat="48.93919" lon="1.96438">
        <ele>83</ele>
        <time>2020-05-16T14:42:52Z</time>
      </trkpt>
      <trkpt lat="48.93929" lon="1.96439">
        <ele>90</ele>
        <time>2020-05-16T14:43:04Z</time>
      </trkpt>
      <trkpt lat="48.93938" lon="1.96432">
        <ele>99</ele>
        <time>2020-05-16T14:43:19Z</time>
      </trkpt>
      <trkpt lat="48.93947" lon="1.96432">
        <ele>101</ele>
        <time>2020-05-16T14:43:25Z</time>
      </trkpt>
      <trkpt lat="48.93956" lon="1.96428">
        <ele>103</ele>
        <time>2020-05-16T14:43:33Z</time>
      </trkpt>
      <trkpt lat="48.93967" lon="1.96425">
        <ele>105</ele>
        <time>2020-05-16T14:43:42Z</time>
      </trkpt>
      <trkpt lat="48.93976" lon="1.96419">
        <ele>106</ele>
        <time>2020-05-16T14:43:51Z</time>
      </trkpt>
      <trkpt lat="48.93985" lon="1.9641">
        <ele>107</ele>
        <time>2020-05-16T14:44:00Z</time>
      </trkpt>
      <trkpt lat="48.93994" lon="1.96406">
        <ele>108</ele>
        <time>2020-05-16T14:44:08Z</time>
      </trkpt>
      <trkpt lat="48.94003" lon="1.96407">
        <ele>108</ele>
        <time>2020-05-16T14:44:16Z</time>
      </trkpt>
      <trkpt lat="48.94013" lon="1.96408">
        <ele>109</ele>
        <time>2020-05-16T14:44:22Z</time>
      </trkpt>
      <trkpt lat="48.94022" lon="1.9641">
        <ele>111</ele>
        <time>2020-05-16T14:44:30Z</time>
      </trkpt>
      <trkpt lat="48.94023" lon="1.96425">
        <ele>113</ele>
        <time>2020-05-16T14:44:36Z</time>
      </trkpt>
      <trkpt lat="48.94018" lon="1.96436">
        <ele>114</ele>
        <time>2020-05-16T14:44:45Z</time>
      </trkpt>
      <trkpt lat="48.94011" lon="1.96448">
        <ele>115</ele>
        <time>2020-05-16T14:44:54Z</time>
      </trkpt>
      <trkpt lat="48.94005" lon="1.96459">
        <ele>116</ele>
        <time>2020-05-16T14:45:03Z</time>
      </trkpt>
      <trkpt lat="48.93997" lon="1.96469">
        <ele>116</ele>
        <time>2020-05-16T14:45:12Z</time>
      </trkpt>
      <trkpt lat="48.93991" lon="1.9648">
        <ele>116</ele>
        <time>2020-05-16T14:45:19Z</time>
      </trkpt>
      <trkpt lat="48.93985" lon="1.96492">
        <ele>116</ele>
        <time>2020-05-16T14:45:26Z</time>
      </trkpt>
      <trkpt lat="48.9398" lon="1.96503">
        <ele>116</ele>
        <time>2020-05-16T14:45:32Z</time>
      </trkpt>
      <trkpt lat="48.93975" lon="1.96515">
        <ele>117</ele>
        <time>2020-05-16T14:45:44Z</time>
      </trkpt>
      <trkpt lat="48.93974" lon="1.96531">
        <ele>118</ele>
        <time>2020-05-16T14:45:54Z</time>
      </trkpt>
      <trkpt lat="48.93969" lon="1.96542">
        <ele>119</ele>
        <time>2020-05-16T14:46:02Z</time>
      </trkpt>
      <trkpt lat="48.93963" lon="1.96552">
        <ele>119</ele>
        <time>2020-05-16T14:46:09Z</time>
      </trkpt>
      <trkpt lat="48.93956" lon="1.96562">
        <ele>119</ele>
        <time>2020-05-16T14:46:16Z</time>
      </trkpt>
      <trkpt lat="48.9395" lon="1.96573">
        <ele>119</ele>
        <time>2020-05-16T14:46:23Z</time>
      </trkpt>
      <trkpt lat="48.93945" lon="1.96585">
        <ele>119</ele>
        <time>2020-05-16T14:46:31Z</time>
      </trkpt>
      <trkpt lat="48.93936" lon="1.96594">
        <ele>119</ele>
        <time>2020-05-16T14:46:40Z</time>
      </trkpt>
      <trkpt lat="48.93928" lon="1.96601">
        <ele>119</ele>
        <time>2020-05-16T14:46:48Z</time>
      </trkpt>
      <trkpt lat="48.93921" lon="1.9661">
        <ele>118</ele>
        <time>2020-05-16T14:46:56Z</time>
      </trkpt>
      <trkpt lat="48.93912" lon="1.96617">
        <ele>118</ele>
        <time>2020-05-16T14:47:03Z</time>
      </trkpt>
      <trkpt lat="48.93903" lon="1.96624">
        <ele>118</ele>
        <time>2020-05-16T14:47:11Z</time>
      </trkpt>
      <trkpt lat="48.93895" lon="1.96632">
        <ele>118</ele>
        <time>2020-05-16T14:47:20Z</time>
      </trkpt>
      <trkpt lat="48.93888" lon="1.96643">
        <ele>118</ele>
        <time>2020-05-16T14:47:30Z</time>
      </trkpt>
      <trkpt lat="48.93883" lon="1.96655">
        <ele>119</ele>
        <time>2020-05-16T14:47:37Z</time>
      </trkpt>
      <trkpt lat="48.93879" lon="1.96668">
        <ele>119</ele>
        <time>2020-05-16T14:47:44Z</time>
      </trkpt>
      <trkpt lat="48.93881" lon="1.96682">
        <ele>118</ele>
        <time>2020-05-16T14:47:51Z</time>
      </trkpt>
      <trkpt lat="48.93886" lon="1.96694">
        <ele>118</ele>
        <time>2020-05-16T14:47:59Z</time>
      </trkpt>
      <trkpt lat="48.93891" lon="1.96707">
        <ele>118</ele>
        <time>2020-05-16T14:48:08Z</time>
      </trkpt>
      <trkpt lat="48.93899" lon="1.96715">
        <ele>118</ele>
        <time>2020-05-16T14:48:16Z</time>
      </trkpt>
      <trkpt lat="48.93908" lon="1.96721">
        <ele>118</ele>
        <time>2020-05-16T14:48:26Z</time>
      </trkpt>
      <trkpt lat="48.93917" lon="1.96726">
        <ele>118</ele>
        <time>2020-05-16T14:48:33Z</time>
      </trkpt>
      <trkpt lat="48.93927" lon="1.96731">
        <ele>119</ele>
        <time>2020-05-16T14:48:39Z</time>
      </trkpt>
      <trkpt lat="48.93934" lon="1.96738">
        <ele>120</ele>
        <time>2020-05-16T14:48:47Z</time>
      </trkpt>
      <trkpt lat="48.93942" lon="1.96747">
        <ele>120</ele>
        <time>2020-05-16T14:48:56Z</time>
      </trkpt>
      <trkpt lat="48.93949" lon="1.96757">
        <ele>121</ele>
        <time>2020-05-16T14:49:04Z</time>
      </trkpt>
      <trkpt lat="48.93956" lon="1.96767">
        <ele>122</ele>
        <time>2020-05-16T14:49:13Z</time>
      </trkpt>
      <trkpt lat="48.93959" lon="1.9678">
        <ele>122</ele>
        <time>2020-05-16T14:49:22Z</time>
      </trkpt>
      <trkpt lat="48.93963" lon="1.96793">
        <ele>123</ele>
        <time>2020-05-16T14:49:29Z</time>
      </trkpt>
      <trkpt lat="48.9397" lon="1.96802">
        <ele>123</ele>
        <time>2020-05-16T14:50:27Z</time>
      </trkpt>
      <trkpt lat="48.9398" lon="1.96804">
        <ele>124</ele>
        <time>2020-05-16T14:50:40Z</time>
      </trkpt>
      <trkpt lat="48.93989" lon="1.96807">
        <ele>125</ele>
        <time>2020-05-16T14:50:50Z</time>
      </trkpt>
      <trkpt lat="48.93997" lon="1.96814">
        <ele>125</ele>
        <time>2020-05-16T14:50:57Z</time>
      </trkpt>
      <trkpt lat="48.94005" lon="1.96823">
        <ele>126</ele>
        <time>2020-05-16T14:51:07Z</time>
      </trkpt>
      <trkpt lat="48.94013" lon="1.96832">
        <ele>127</ele>
        <time>2020-05-16T14:51:17Z</time>
      </trkpt>
      <trkpt lat="48.9402" lon="1.96842">
        <ele>129</ele>
        <time>2020-05-16T14:51:26Z</time>
      </trkpt>
      <trkpt lat="48.94029" lon="1.96849">
        <ele>131</ele>
        <time>2020-05-16T14:51:35Z</time>
      </trkpt>
      <trkpt lat="48.94036" lon="1.96858">
        <ele>132</ele>
        <time>2020-05-16T14:51:43Z</time>
      </trkpt>
      <trkpt lat="48.94045" lon="1.96864">
        <ele>133</ele>
        <time>2020-05-16T14:51:51Z</time>
      </trkpt>
      <trkpt lat="48.94051" lon="1.96875">
        <ele>134</ele>
        <time>2020-05-16T14:52:02Z</time>
      </trkpt>
      <trkpt lat="48.94056" lon="1.96886">
        <ele>134</ele>
        <time>2020-05-16T14:52:10Z</time>
      </trkpt>
      <trkpt lat="48.94059" lon="1.96899">
        <ele>135</ele>
        <time>2020-05-16T14:52:25Z</time>
      </trkpt>
      <trkpt lat="48.94054" lon="1.96911">
        <ele>136</ele>
        <time>2020-05-16T14:52:35Z</time>
      </trkpt>
      <trkpt lat="48.94049" lon="1.96923">
        <ele>136</ele>
        <time>2020-05-16T14:52:42Z</time>
      </trkpt>
      <trkpt lat="48.94046" lon="1.96937">
        <ele>137</ele>
        <time>2020-05-16T14:52:51Z</time>
      </trkpt>
      <trkpt lat="48.94044" lon="1.9695">
        <ele>137</ele>
        <time>2020-05-16T14:52:59Z</time>
      </trkpt>
      <trkpt lat="48.94041" lon="1.96964">
        <ele>137</ele>
        <time>2020-05-16T14:53:10Z</time>
      </trkpt>
      <trkpt lat="48.94038" lon="1.96977">
        <ele>137</ele>
        <time>2020-05-16T14:53:18Z</time>
      </trkpt>
      <trkpt lat="48.94036" lon="1.96992">
        <ele>136</ele>
        <time>2020-05-16T14:53:26Z</time>
      </trkpt>
      <trkpt lat="48.94038" lon="1.97005">
        <ele>136</ele>
        <time>2020-05-16T14:53:34Z</time>
      </trkpt>
      <trkpt lat="48.94038" lon="1.9702">
        <ele>135</ele>
        <time>2020-05-16T14:53:43Z</time>
      </trkpt>
      <trkpt lat="48.94039" lon="1.97034">
        <ele>135</ele>
        <time>2020-05-16T14:53:52Z</time>
      </trkpt>
      <trkpt lat="48.94041" lon="1.97049">
        <ele>134</ele>
        <time>2020-05-16T14:53:59Z</time>
      </trkpt>
      <trkpt lat="48.94044" lon="1.97063">
        <ele>134</ele>
        <time>2020-05-16T14:54:05Z</time>
      </trkpt>
      <trkpt lat="48.94045" lon="1.97078">
        <ele>133</ele>
        <time>2020-05-16T14:54:14Z</time>
      </trkpt>
      <trkpt lat="48.94045" lon="1.97093">
        <ele>133</ele>
        <time>2020-05-16T14:54:21Z</time>
      </trkpt>
      <trkpt lat="48.94042" lon="1.97106">
        <ele>133</ele>
        <time>2020-05-16T14:54:30Z</time>
      </trkpt>
      <trkpt lat="48.94039" lon="1.97121">
        <ele>132</ele>
        <time>2020-05-16T14:54:39Z</time>
      </trkpt>
      <trkpt lat="48.94036" lon="1.97137">
        <ele>133</ele>
        <time>2020-05-16T14:54:48Z</time>
      </trkpt>
      <trkpt lat="48.94032" lon="1.97151">
        <ele>133</ele>
        <time>2020-05-16T14:54:55Z</time>
      </trkpt>
      <trkpt lat="48.94027" lon="1.97163">
        <ele>133</ele>
        <time>2020-05-16T14:55:04Z</time>
      </trkpt>
      <trkpt lat="48.94022" lon="1.97176">
        <ele>132</ele>
        <time>2020-05-16T14:55:12Z</time>
      </trkpt>
      <trkpt lat="48.94018" lon="1.97189">
        <ele>132</ele>
        <time>2020-05-16T14:55:19Z</time>
      </trkpt>
      <trkpt lat="48.94012" lon="1.97203">
        <ele>132</ele>
        <time>2020-05-16T14:55:28Z</time>
      </trkpt>
      <trkpt lat="48.94008" lon="1.97215">
        <ele>131</ele>
        <time>2020-05-16T14:55:36Z</time>
      </trkpt>
      <trkpt lat="48.94004" lon="1.97228">
        <ele>131</ele>
        <time>2020-05-16T14:55:43Z</time>
      </trkpt>
      <trkpt lat="48.93997" lon="1.9724">
        <ele>131</ele>
        <time>2020-05-16T14:55:50Z</time>
      </trkpt>
      <trkpt lat="48.93993" lon="1.97254">
        <ele>131</ele>
        <time>2020-05-16T14:56:00Z</time>
      </trkpt>
      <trkpt lat="48.93993" lon="1.97269">
        <ele>129</ele>
        <time>2020-05-16T14:56:09Z</time>
      </trkpt>
      <trkpt lat="48.93995" lon="1.97283">
        <ele>128</ele>
        <time>2020-05-16T14:56:20Z</time>
      </trkpt>
      <trkpt lat="48.93997" lon="1.97297">
        <ele>127</ele>
        <time>2020-05-16T14:56:41Z</time>
      </trkpt>
      <trkpt lat="48.93997" lon="1.97311">
        <ele>127</ele>
        <time>2020-05-16T14:56:50Z</time>
      </trkpt>
      <trkpt lat="48.93996" lon="1.97326">
        <ele>126</ele>
        <time>2020-05-16T14:56:57Z</time>
      </trkpt>
      <trkpt lat="48.93996" lon="1.97341">
        <ele>126</ele>
        <time>2020-05-16T14:57:07Z</time>
      </trkpt>
      <trkpt lat="48.93998" lon="1.97355">
        <ele>125</ele>
        <time>2020-05-16T14:57:17Z</time>
      </trkpt>
      <trkpt lat="48.94001" lon="1.9737">
        <ele>124</ele>
        <time>2020-05-16T14:57:25Z</time>
      </trkpt>
      <trkpt lat="48.93998" lon="1.97384">
        <ele>123</ele>
        <time>2020-05-16T14:57:32Z</time>
      </trkpt>
      <trkpt lat="48.93999" lon="1.97399">
        <ele>123</ele>
        <time>2020-05-16T14:57:39Z</time>
      </trkpt>
      <trkpt lat="48.94007" lon="1.97407">
        <ele>122</ele>
        <time>2020-05-16T14:57:47Z</time>
      </trkpt>
      <trkpt lat="48.94017" lon="1.9741">
        <ele>121</ele>
        <time>2020-05-16T14:57:55Z</time>
      </trkpt>
      <trkpt lat="48.94026" lon="1.9741">
        <ele>121</ele>
        <time>2020-05-16T14:58:03Z</time>
      </trkpt>
      <trkpt lat="48.94035" lon="1.97414">
        <ele>121</ele>
        <time>2020-05-16T14:58:11Z</time>
      </trkpt>
      <trkpt lat="48.94045" lon="1.97417">
        <ele>122</ele>
        <time>2020-05-16T14:58:19Z</time>
      </trkpt>
      <trkpt lat="48.94054" lon="1.97423">
        <ele>122</ele>
        <time>2020-05-16T14:58:28Z</time>
      </trkpt>
      <trkpt lat="48.94063" lon="1.97426">
        <ele>123</ele>
        <time>2020-05-16T14:58:34Z</time>
      </trkpt>
      <trkpt lat="48.94071" lon="1.97431">
        <ele>123</ele>
        <time>2020-05-16T14:58:40Z</time>
      </trkpt>
      <trkpt lat="48.94077" lon="1.97442">
        <ele>124</ele>
        <time>2020-05-16T14:58:48Z</time>
      </trkpt>
      <trkpt lat="48.94082" lon="1.97456">
        <ele>123</ele>
        <time>2020-05-16T14:58:56Z</time>
      </trkpt>
      <trkpt lat="48.94082" lon="1.9747">
        <ele>123</ele>
        <time>2020-05-16T14:59:06Z</time>
      </trkpt>
      <trkpt lat="48.94083" lon="1.97485">
        <ele>123</ele>
        <time>2020-05-16T14:59:13Z</time>
      </trkpt>
      <trkpt lat="48.94083" lon="1.97499">
        <ele>122</ele>
        <time>2020-05-16T14:59:20Z</time>
      </trkpt>
      <trkpt lat="48.94084" lon="1.97513">
        <ele>121</ele>
        <time>2020-05-16T14:59:27Z</time>
      </trkpt>
      <trkpt lat="48.94084" lon="1.97528">
        <ele>120</ele>
        <time>2020-05-16T14:59:35Z</time>
      </trkpt>
      <trkpt lat="48.94084" lon="1.97542">
        <ele>120</ele>
        <time>2020-05-16T14:59:42Z</time>
      </trkpt>
      <trkpt lat="48.94083" lon="1.97556">
        <ele>120</ele>
        <time>2020-05-16T14:59:49Z</time>
      </trkpt>
      <trkpt lat="48.94082" lon="1.9757">
        <ele>119</ele>
        <time>2020-05-16T14:59:57Z</time>
      </trkpt>
      <trkpt lat="48.9408" lon="1.97585">
        <ele>119</ele>
        <time>2020-05-16T15:00:05Z</time>
      </trkpt>
      <trkpt lat="48.94078" lon="1.97599">
        <ele>118</ele>
        <time>2020-05-16T15:00:13Z</time>
      </trkpt>
      <trkpt lat="48.94078" lon="1.97614">
        <ele>118</ele>
        <time>2020-05-16T15:00:21Z</time>
      </trkpt>
      <trkpt lat="48.94077" lon="1.97629">
        <ele>116</ele>
        <time>2020-05-16T15:00:29Z</time>
      </trkpt>
      <trkpt lat="48.94077" lon="1.97643">
        <ele>115</ele>
        <time>2020-05-16T15:00:37Z</time>
      </trkpt>
      <trkpt lat="48.94076" lon="1.97657">
        <ele>115</ele>
        <time>2020-05-16T15:00:43Z</time>
      </trkpt>
      <trkpt lat="48.94073" lon="1.9767">
        <ele>114</ele>
        <time>2020-05-16T15:00:50Z</time>
      </trkpt>
      <trkpt lat="48.94074" lon="1.97684">
        <ele>113</ele>
        <time>2020-05-16T15:00:58Z</time>
      </trkpt>
      <trkpt lat="48.94072" lon="1.97698">
        <ele>112</ele>
        <time>2020-05-16T15:01:06Z</time>
      </trkpt>
      <trkpt lat="48.94071" lon="1.97713">
        <ele>111</ele>
        <time>2020-05-16T15:01:14Z</time>
      </trkpt>
      <trkpt lat="48.94069" lon="1.97728">
        <ele>110</ele>
        <time>2020-05-16T15:01:21Z</time>
      </trkpt>
      <trkpt lat="48.9407" lon="1.97741">
        <ele>111</ele>
        <time>2020-05-16T15:01:27Z</time>
      </trkpt>
      <trkpt lat="48.94071" lon="1.97756">
        <ele>111</ele>
        <time>2020-05-16T15:01:36Z</time>
      </trkpt>
      <trkpt lat="48.94062" lon="1.97764">
        <ele>111</ele>
        <time>2020-05-16T15:01:44Z</time>
      </trkpt>
      <trkpt lat="48.94053" lon="1.97767">
        <ele>111</ele>
        <time>2020-05-16T15:01:51Z</time>
      </trkpt>
      <trkpt lat="48.94047" lon="1.97779">
        <ele>110</ele>
        <time>2020-05-16T15:01:58Z</time>
      </trkpt>
      <trkpt lat="48.94049" lon="1.97793">
        <ele>110</ele>
        <time>2020-05-16T15:02:07Z</time>
      </trkpt>
      <trkpt lat="48.94056" lon="1.97803">
        <ele>110</ele>
        <time>2020-05-16T15:02:13Z</time>
      </trkpt>
      <trkpt lat="48.94053" lon="1.97816">
        <ele>110</ele>
        <time>2020-05-16T15:02:33Z</time>
      </trkpt>
      <trkpt lat="48.9406" lon="1.97825">
        <ele>109</ele>
        <time>2020-05-16T15:02:42Z</time>
      </trkpt>
      <trkpt lat="48.94064" lon="1.97837">
        <ele>108</ele>
        <time>2020-05-16T15:03:07Z</time>
      </trkpt>
      <trkpt lat="48.94067" lon="1.97852">
        <ele>107</ele>
        <time>2020-05-16T15:03:15Z</time>
      </trkpt>
      <trkpt lat="48.94068" lon="1.97867">
        <ele>107</ele>
        <time>2020-05-16T15:03:23Z</time>
      </trkpt>
      <trkpt lat="48.94071" lon="1.97881">
        <ele>106</ele>
        <time>2020-05-16T15:03:31Z</time>
      </trkpt>
      <trkpt lat="48.94074" lon="1.97896">
        <ele>106</ele>
        <time>2020-05-16T15:03:40Z</time>
      </trkpt>
      <trkpt lat="48.94074" lon="1.97911">
        <ele>105</ele>
        <time>2020-05-16T15:03:48Z</time>
      </trkpt>
      <trkpt lat="48.94074" lon="1.97926">
        <ele>105</ele>
        <time>2020-05-16T15:03:55Z</time>
      </trkpt>
      <trkpt lat="48.94075" lon="1.97941">
        <ele>105</ele>
        <time>2020-05-16T15:04:02Z</time>
      </trkpt>
      <trkpt lat="48.94074" lon="1.97955">
        <ele>106</ele>
        <time>2020-05-16T15:04:09Z</time>
      </trkpt>
      <trkpt lat="48.94076" lon="1.97968">
        <ele>106</ele>
        <time>2020-05-16T15:04:17Z</time>
      </trkpt>
      <trkpt lat="48.94076" lon="1.97983">
        <ele>106</ele>
        <time>2020-05-16T15:04:24Z</time>
      </trkpt>
      <trkpt lat="48.94078" lon="1.97997">
        <ele>106</ele>
        <time>2020-05-16T15:04:31Z</time>
      </trkpt>
      <trkpt lat="48.94081" lon="1.98012">
        <ele>106</ele>
        <time>2020-05-16T15:04:38Z</time>
      </trkpt>
      <trkpt lat="48.94081" lon="1.98026">
        <ele>106</ele>
        <time>2020-05-16T15:04:46Z</time>
      </trkpt>
      <trkpt lat="48.94082" lon="1.98041">
        <ele>106</ele>
        <time>2020-05-16T15:04:55Z</time>
      </trkpt>
      <trkpt lat="48.94085" lon="1.98057">
        <ele>106</ele>
        <time>2020-05-16T15:05:03Z</time>
      </trkpt>
      <trkpt lat="48.94088" lon="1.9807">
        <ele>105</ele>
        <time>2020-05-16T15:05:10Z</time>
      </trkpt>
      <trkpt lat="48.94089" lon="1.98085">
        <ele>105</ele>
        <time>2020-05-16T15:05:18Z</time>
      </trkpt>
      <trkpt lat="48.94092" lon="1.981">
        <ele>104</ele>
        <time>2020-05-16T15:05:25Z</time>
      </trkpt>
      <trkpt lat="48.94098" lon="1.98111">
        <ele>104</ele>
        <time>2020-05-16T15:05:32Z</time>
      </trkpt>
      <trkpt lat="48.94099" lon="1.98125">
        <ele>104</ele>
        <time>2020-05-16T15:05:39Z</time>
      </trkpt>
      <trkpt lat="48.941" lon="1.9814">
        <ele>104</ele>
        <time>2020-05-16T15:05:46Z</time>
      </trkpt>
      <trkpt lat="48.94101" lon="1.98155">
        <ele>105</ele>
        <time>2020-05-16T15:05:55Z</time>
      </trkpt>
      <trkpt lat="48.94105" lon="1.98167">
        <ele>105</ele>
        <time>2020-05-16T15:06:03Z</time>
      </trkpt>
      <trkpt lat="48.94108" lon="1.98181">
        <ele>105</ele>
        <time>2020-05-16T15:06:11Z</time>
      </trkpt>
      <trkpt lat="48.94109" lon="1.98195">
        <ele>105</ele>
        <time>2020-05-16T15:06:17Z</time>
      </trkpt>
      <trkpt lat="48.94113" lon="1.98207">
        <ele>105</ele>
        <time>2020-05-16T15:06:24Z</time>
      </trkpt>
      <trkpt lat="48.94109" lon="1.9822">
        <ele>105</ele>
        <time>2020-05-16T15:06:31Z</time>
      </trkpt>
      <trkpt lat="48.94111" lon="1.98234">
        <ele>104</ele>
        <time>2020-05-16T15:06:39Z</time>
      </trkpt>
      <trkpt lat="48.94112" lon="1.98248">
        <ele>103</ele>
        <time>2020-05-16T15:06:46Z</time>
      </trkpt>
      <trkpt lat="48.9411" lon="1.98262">
        <ele>104</ele>
        <time>2020-05-16T15:06:54Z</time>
      </trkpt>
      <trkpt lat="48.94106" lon="1.98277">
        <ele>104</ele>
        <time>2020-05-16T15:07:01Z</time>
      </trkpt>
      <trkpt lat="48.94106" lon="1.98291">
        <ele>104</ele>
        <time>2020-05-16T15:07:08Z</time>
      </trkpt>
      <trkpt lat="48.94106" lon="1.98305">
        <ele>104</ele>
        <time>2020-05-16T15:07:17Z</time>
      </trkpt>
      <trkpt lat="48.94106" lon="1.98319">
        <ele>104</ele>
        <time>2020-05-16T15:07:24Z</time>
      </trkpt>
      <trkpt lat="48.94104" lon="1.98333">
        <ele>104</ele>
        <time>2020-05-16T15:07:30Z</time>
      </trkpt>
      <trkpt lat="48.94102" lon="1.98346">
        <ele>105</ele>
        <time>2020-05-16T15:07:38Z</time>
      </trkpt>
      <trkpt lat="48.94103" lon="1.98361">
        <ele>105</ele>
        <time>2020-05-16T15:07:47Z</time>
      </trkpt>
      <trkpt lat="48.94105" lon="1.98376">
        <ele>105</ele>
        <time>2020-05-16T15:07:53Z</time>
      </trkpt>
      <trkpt lat="48.94106" lon="1.98391">
        <ele>105</ele>
        <time>2020-05-16T15:08:01Z</time>
      </trkpt>
      <trkpt lat="48.94107" lon="1.98405">
        <ele>105</ele>
        <time>2020-05-16T15:08:07Z</time>
      </trkpt>
      <trkpt lat="48.9411" lon="1.98419">
        <ele>105</ele>
        <time>2020-05-16T15:08:15Z</time>
      </trkpt>
      <trkpt lat="48.94109" lon="1.98435">
        <ele>104</ele>
        <time>2020-05-16T15:08:24Z</time>
      </trkpt>
      <trkpt lat="48.94109" lon="1.9845">
        <ele>103</ele>
        <time>2020-05-16T15:08:33Z</time>
      </trkpt>
      <trkpt lat="48.94111" lon="1.98465">
        <ele>103</ele>
        <time>2020-05-16T15:08:41Z</time>
      </trkpt>
      <trkpt lat="48.94112" lon="1.98478">
        <ele>102</ele>
        <time>2020-05-16T15:08:48Z</time>
      </trkpt>
      <trkpt lat="48.94113" lon="1.98493">
        <ele>101</ele>
        <time>2020-05-16T15:08:55Z</time>
      </trkpt>
      <trkpt lat="48.94111" lon="1.98508">
        <ele>101</ele>
        <time>2020-05-16T15:09:03Z</time>
      </trkpt>
      <trkpt lat="48.94109" lon="1.98522">
        <ele>100</ele>
        <time>2020-05-16T15:09:10Z</time>
      </trkpt>
      <trkpt lat="48.94109" lon="1.98537">
        <ele>100</ele>
        <time>2020-05-16T15:09:18Z</time>
      </trkpt>
      <trkpt lat="48.94108" lon="1.98551">
        <ele>100</ele>
        <time>2020-05-16T15:09:25Z</time>
      </trkpt>
      <trkpt lat="48.94108" lon="1.98566">
        <ele>101</ele>
        <time>2020-05-16T15:09:34Z</time>
      </trkpt>
      <trkpt lat="48.94107" lon="1.98582">
        <ele>100</ele>
        <time>2020-05-16T15:09:43Z</time>
      </trkpt>
      <trkpt lat="48.94107" lon="1.98597">
        <ele>100</ele>
        <time>2020-05-16T15:09:51Z</time>
      </trkpt>
      <trkpt lat="48.94106" lon="1.98613">
        <ele>101</ele>
        <time>2020-05-16T15:09:58Z</time>
      </trkpt>
      <trkpt lat="48.94105" lon="1.98627">
        <ele>101</ele>
        <time>2020-05-16T15:10:06Z</time>
      </trkpt>
      <trkpt lat="48.94105" lon="1.98641">
        <ele>101</ele>
        <time>2020-05-16T15:10:12Z</time>
      </trkpt>
      <trkpt lat="48.94102" lon="1.98655">
        <ele>101</ele>
        <time>2020-05-16T15:10:18Z</time>
      </trkpt>
      <trkpt lat="48.94099" lon="1.98669">
        <ele>101</ele>
        <time>2020-05-16T15:10:26Z</time>
      </trkpt>
      <trkpt lat="48.94097" lon="1.98683">
        <ele>102</ele>
        <time>2020-05-16T15:10:34Z</time>
      </trkpt>
      <trkpt lat="48.94093" lon="1.98696">
        <ele>101</ele>
        <time>2020-05-16T15:10:41Z</time>
      </trkpt>
      <trkpt lat="48.94092" lon="1.9871">
        <ele>101</ele>
        <time>2020-05-16T15:10:48Z</time>
      </trkpt>
      <trkpt lat="48.94089" lon="1.98724">
        <ele>102</ele>
        <time>2020-05-16T15:10:57Z</time>
      </trkpt>
      <trkpt lat="48.94087" lon="1.9874">
        <ele>102</ele>
        <time>2020-05-16T15:11:04Z</time>
      </trkpt>
      <trkpt lat="48.94085" lon="1.98754">
        <ele>102</ele>
        <time>2020-05-16T15:11:11Z</time>
      </trkpt>
      <trkpt lat="48.94081" lon="1.98767">
        <ele>102</ele>
        <time>2020-05-16T15:11:18Z</time>
      </trkpt>
      <trkpt lat="48.94079" lon="1.98781">
        <ele>102</ele>
        <time>2020-05-16T15:11:26Z</time>
      </trkpt>
      <trkpt lat="48.94074" lon="1.98794">
        <ele>101</ele>
        <time>2020-05-16T15:11:34Z</time>
      </trkpt>
      <trkpt lat="48.94072" lon="1.98809">
        <ele>101</ele>
        <time>2020-05-16T15:11:43Z</time>
      </trkpt>
      <trkpt lat="48.9407" lon="1.98823">
        <ele>101</ele>
        <time>2020-05-16T15:11:51Z</time>
      </trkpt>
      <trkpt lat="48.94067" lon="1.98837">
        <ele>101</ele>
        <time>2020-05-16T15:11:57Z</time>
      </trkpt>
      <trkpt lat="48.94066" lon="1.98853">
        <ele>100</ele>
        <time>2020-05-16T15:12:06Z</time>
      </trkpt>
      <trkpt lat="48.94063" lon="1.98867">
        <ele>100</ele>
        <time>2020-05-16T15:12:14Z</time>
      </trkpt>
      <trkpt lat="48.94062" lon="1.98881">
        <ele>101</ele>
        <time>2020-05-16T15:12:21Z</time>
      </trkpt>
      <trkpt lat="48.94062" lon="1.98895">
        <ele>101</ele>
        <time>2020-05-16T15:12:28Z</time>
      </trkpt>
      <trkpt lat="48.94063" lon="1.98909">
        <ele>101</ele>
        <time>2020-05-16T15:12:35Z</time>
      </trkpt>
      <trkpt lat="48.94064" lon="1.98923">
        <ele>101</ele>
        <time>2020-05-16T15:12:42Z</time>
      </trkpt>
      <trkpt lat="48.94063" lon="1.98939">
        <ele>102</ele>
        <time>2020-05-16T15:12:50Z</time>
      </trkpt>
      <trkpt lat="48.94064" lon="1.98953">
        <ele>102</ele>
        <time>2020-05-16T15:12:57Z</time>
      </trkpt>
      <trkpt lat="48.94067" lon="1.98966">
        <ele>102</ele>
        <time>2020-05-16T15:13:06Z</time>
      </trkpt>
      <trkpt lat="48.9407" lon="1.98979">
        <ele>102</ele>
        <time>2020-05-16T15:13:11Z</time>
      </trkpt>
      <trkpt lat="48.94071" lon="1.98992">
        <ele>102</ele>
        <time>2020-05-16T15:13:18Z</time>
      </trkpt>
      <trkpt lat="48.94074" lon="1.99006">
        <ele>102</ele>
        <time>2020-05-16T15:13:25Z</time>
      </trkpt>
      <trkpt lat="48.9408" lon="1.99016">
        <ele>102</ele>
        <time>2020-05-16T15:14:24Z</time>
      </trkpt>
      <trkpt lat="48.94084" lon="1.99028">
        <ele>102</ele>
        <time>2020-05-16T15:14:45Z</time>
      </trkpt>
      <trkpt lat="48.94083" lon="1.99042">
        <ele>101</ele>
        <time>2020-05-16T15:15:00Z</time>
      </trkpt>
      <trkpt lat="48.94077" lon="1.99052">
        <ele>100</ele>
        <time>2020-05-16T15:15:05Z</time>
      </trkpt>
      <trkpt lat="48.94071" lon="1.99065">
        <ele>100</ele>
        <time>2020-05-16T15:15:11Z</time>
      </trkpt>
      <trkpt lat="48.94064" lon="1.99074">
        <ele>100</ele>
        <time>2020-05-16T15:15:17Z</time>
      </trkpt>
      <trkpt lat="48.94058" lon="1.99087">
        <ele>99</ele>
        <time>2020-05-16T15:15:26Z</time>
      </trkpt>
      <trkpt lat="48.94051" lon="1.99097">
        <ele>98</ele>
        <time>2020-05-16T15:15:36Z</time>
      </trkpt>
      <trkpt lat="48.94041" lon="1.99104">
        <ele>98</ele>
        <time>2020-05-16T15:15:42Z</time>
      </trkpt>
      <trkpt lat="48.94032" lon="1.99112">
        <ele>98</ele>
        <time>2020-05-16T15:15:50Z</time>
      </trkpt>
      <trkpt lat="48.94024" lon="1.9912">
        <ele>98</ele>
        <time>2020-05-16T15:15:58Z</time>
      </trkpt>
      <trkpt lat="48.94015" lon="1.99125">
        <ele>98</ele>
        <time>2020-05-16T15:16:05Z</time>
      </trkpt>
      <trkpt lat="48.94006" lon="1.99132">
        <ele>97</ele>
        <time>2020-05-16T15:16:13Z</time>
      </trkpt>
      <trkpt lat="48.93996" lon="1.99138">
        <ele>97</ele>
        <time>2020-05-16T15:16:20Z</time>
      </trkpt>
      <trkpt lat="48.93987" lon="1.99144">
        <ele>97</ele>
        <time>2020-05-16T15:16:29Z</time>
      </trkpt>
      <trkpt lat="48.93979" lon="1.99151">
        <ele>96</ele>
        <time>2020-05-16T15:16:37Z</time>
      </trkpt>
      <trkpt lat="48.93969" lon="1.99155">
        <ele>96</ele>
        <time>2020-05-16T15:16:45Z</time>
      </trkpt>
      <trkpt lat="48.93959" lon="1.99157">
        <ele>96</ele>
        <time>2020-05-16T15:16:53Z</time>
      </trkpt>
      <trkpt lat="48.9395" lon="1.99164">
        <ele>96</ele>
        <time>2020-05-16T15:17:09Z</time>
      </trkpt>
      <trkpt lat="48.93944" lon="1.99175">
        <ele>95</ele>
        <time>2020-05-16T15:17:18Z</time>
      </trkpt>
      <trkpt lat="48.93946" lon="1.99189">
        <ele>95</ele>
        <time>2020-05-16T15:17:24Z</time>
      </trkpt>
      <trkpt lat="48.9395" lon="1.99203">
        <ele>95</ele>
        <time>2020-05-16T15:17:33Z</time>
      </trkpt>
      <trkpt lat="48.93955" lon="1.99216">
        <ele>95</ele>
        <time>2020-05-16T15:17:43Z</time>
      </trkpt>
      <trkpt lat="48.93958" lon="1.99231">
        <ele>95</ele>
        <time>2020-05-16T15:17:50Z</time>
      </trkpt>
      <trkpt lat="48.9396" lon="1.99245">
        <ele>96</ele>
        <time>2020-05-16T15:17:58Z</time>
      </trkpt>
      <trkpt lat="48.9396" lon="1.99259">
        <ele>96</ele>
        <time>2020-05-16T15:18:07Z</time>
      </trkpt>
      <trkpt lat="48.93959" lon="1.99275">
        <ele>96</ele>
        <time>2020-05-16T15:18:13Z</time>
      </trkpt>
      <trkpt lat="48.93956" lon="1.9929">
        <ele>96</ele>
        <time>2020-05-16T15:18:20Z</time>
      </trkpt>
      <trkpt lat="48.93953" lon="1.99304">
        <ele>96</ele>
        <time>2020-05-16T15:18:30Z</time>
      </trkpt>
      <trkpt lat="48.93949" lon="1.99317">
        <ele>95</ele>
        <time>2020-05-16T15:18:38Z</time>
      </trkpt>
      <trkpt lat="48.93945" lon="1.9933">
        <ele>95</ele>
        <time>2020-05-16T15:18:45Z</time>
      </trkpt>
      <trkpt lat="48.93943" lon="1.99344">
        <ele>95</ele>
        <time>2020-05-16T15:18:54Z</time>
      </trkpt>
      <trkpt lat="48.93946" lon="1.99358">
        <ele>95</ele>
        <time>2020-05-16T15:19:05Z</time>
      </trkpt>
      <trkpt lat="48.9395" lon="1.99371">
        <ele>94</ele>
        <time>2020-05-16T15:19:14Z</time>
      </trkpt>
      <trkpt lat="48.93951" lon="1.99385">
        <ele>92</ele>
        <time>2020-05-16T15:19:22Z</time>
      </trkpt>
      <trkpt lat="48.93957" lon="1.99395">
        <ele>89</ele>
        <time>2020-05-16T15:19:33Z</time>
      </trkpt>
      <trkpt lat="48.93967" lon="1.99401">
        <ele>86</ele>
        <time>2020-05-16T15:19:42Z</time>
      </trkpt>
      <trkpt lat="48.93976" lon="1.99403">
        <ele>83</ele>
        <time>2020-05-16T15:19:50Z</time>
      </trkpt>
      <trkpt lat="48.93984" lon="1.99408">
        <ele>80</ele>
        <time>2020-05-16T15:19:57Z</time>
      </trkpt>
      <trkpt lat="48.93993" lon="1.99414">
        <ele>78</ele>
        <time>2020-05-16T15:20:03Z</time>
      </trkpt>
      <trkpt lat="48.94002" lon="1.99413">
        <ele>76</ele>
        <time>2020-05-16T15:20:18Z</time>
      </trkpt>
      <trkpt lat="48.94011" lon="1.99411">
        <ele>75</ele>
        <time>2020-05-16T15:20:31Z</time>
      </trkpt>
      <trkpt lat="48.94017" lon="1.99423">
        <ele>73</ele>
        <time>2020-05-16T15:20:48Z</time>
      </trkpt>
      <trkpt lat="48.9402" lon="1.99436">
        <ele>82</ele>
        <time>2020-05-16T15:22:02Z</time>
      </trkpt>
      <trkpt lat="48.94022" lon="1.9945">
        <ele>84</ele>
        <time>2020-05-16T15:22:45Z</time>
      </trkpt>
      <trkpt lat="48.94024" lon="1.99464">
        <ele>78</ele>
        <time>2020-05-16T15:23:30Z</time>
      </trkpt>
      <trkpt lat="48.94023" lon="1.99479">
        <ele>72</ele>
        <time>2020-05-16T15:23:50Z</time>
      </trkpt>
      <trkpt lat="48.94023" lon="1.99493">
        <ele>69</ele>
        <time>2020-05-16T15:24:03Z</time>
      </trkpt>
      <trkpt lat="48.94026" lon="1.99506">
        <ele>66</ele>
        <time>2020-05-16T15:24:19Z</time>
      </trkpt>
      <trkpt lat="48.94025" lon="1.9952">
        <ele>63</ele>
        <time>2020-05-16T15:24:39Z</time>
      </trkpt>
      <trkpt lat="48.94023" lon="1.99534">
        <ele>57</ele>
        <time>2020-05-16T15:25:13Z</time>
      </trkpt>
      <trkpt lat="48.94021" lon="1.99548">
        <ele>55</ele>
        <time>2020-05-16T15:25:27Z</time>
      </trkpt>
      <trkpt lat="48.94023" lon="1.99561">
        <ele>53</ele>
        <time>2020-05-16T15:25:38Z</time>
      </trkpt>
      <trkpt lat="48.9402" lon="1.99575">
        <ele>51</ele>
        <time>2020-05-16T15:26:23Z</time>
      </trkpt>
      <trkpt lat="48.94019" lon="1.9959">
        <ele>50</ele>
        <time>2020-05-16T15:26:36Z</time>
      </trkpt>
      <trkpt lat="48.94011" lon="1.99597">
        <ele>47</ele>
        <time>2020-05-16T15:26:49Z</time>
      </trkpt>
      <trkpt lat="48.94004" lon="1.99606">
        <ele>46</ele>
        <time>2020-05-16T15:26:58Z</time>
      </trkpt>
      <trkpt lat="48.93999" lon="1.99618">
        <ele>44</ele>
        <time>2020-05-16T15:27:08Z</time>
      </trkpt>
      <trkpt lat="48.93999" lon="1.99633">
        <ele>43</ele>
        <time>2020-05-16T15:27:16Z</time>
      </trkpt>
      <trkpt lat="48.93998" lon="1.99647">
        <ele>41</ele>
        <time>2020-05-16T15:27:25Z</time>
      </trkpt>
      <trkpt lat="48.94" lon="1.99661">
        <ele>40</ele>
        <time>2020-05-16T15:27:33Z</time>
      </trkpt>
      <trkpt lat="48.94001" lon="1.99675">
        <ele>39</ele>
        <time>2020-05-16T15:27:41Z</time>
      </trkpt>
      <trkpt lat="48.94002" lon="1.99689">
        <ele>38</ele>
        <time>2020-05-16T15:27:50Z</time>
      </trkpt>
      <trkpt lat="48.94007" lon="1.99703">
        <ele>37</ele>
        <time>2020-05-16T15:27:59Z</time>
      </trkpt>
      <trkpt lat="48.9401" lon="1.99717">
        <ele>36</ele>
        <time>2020-05-16T15:28:05Z</time>
      </trkpt>
      <trkpt lat="48.94015" lon="1.99728">
        <ele>36</ele>
        <time>2020-05-16T15:28:13Z</time>
      </trkpt>
      <trkpt lat="48.94024" lon="1.99733">
        <ele>36</ele>
        <time>2020-05-16T15:28:21Z</time>
      </trkpt>
      <trkpt lat="48.94029" lon="1.99745">
        <ele>36</ele>
        <time>2020-05-16T15:28:32Z</time>
      </trkpt>
      <trkpt lat="48.94032" lon="1.99757">
        <ele>35</ele>
        <time>2020-05-16T15:28:43Z</time>
      </trkpt>
      <trkpt lat="48.94033" lon="1.99771">
        <ele>34</ele>
        <time>2020-05-16T15:28:55Z</time>
      </trkpt>
      <trkpt lat="48.94029" lon="1.99785">
        <ele>32</ele>
        <time>2020-05-16T15:29:09Z</time>
      </trkpt>
      <trkpt lat="48.94021" lon="1.99794">
        <ele>30</ele>
        <time>2020-05-16T15:29:21Z</time>
      </trkpt>
      <trkpt lat="48.94022" lon="1.9981">
        <ele>28</ele>
        <time>2020-05-16T15:29:33Z</time>
      </trkpt>
      <trkpt lat="48.94025" lon="1.99824">
        <ele>27</ele>
        <time>2020-05-16T15:29:41Z</time>
      </trkpt>
      <trkpt lat="48.94022" lon="1.99837">
        <ele>25</ele>
        <time>2020-05-16T15:29:57Z</time>
      </trkpt>
      <trkpt lat="48.94013" lon="1.9984">
        <ele>24</ele>
        <time>2020-05-16T15:30:11Z</time>
      </trkpt>
      <trkpt lat="48.94009" lon="1.99852">
        <ele>24</ele>
        <time>2020-05-16T15:30:17Z</time>
      </trkpt>
      <trkpt lat="48.94" lon="1.99858">
        <ele>24</ele>
        <time>2020-05-16T15:30:27Z</time>
      </trkpt>
      <trkpt lat="48.93992" lon="1.99864">
        <ele>23</ele>
        <time>2020-05-16T15:30:38Z</time>
      </trkpt>
      <trkpt lat="48.93984" lon="1.99875">
        <ele>23</ele>
        <time>2020-05-16T15:30:48Z</time>
      </trkpt>
      <trkpt lat="48.9398" lon="1.99889">
        <ele>24</ele>
        <time>2020-05-16T15:30:57Z</time>
      </trkpt>
      <trkpt lat="48.93974" lon="1.999">
        <ele>24</ele>
        <time>2020-05-16T15:31:04Z</time>
      </trkpt>
      <trkpt lat="48.93965" lon="1.999">
        <ele>25</ele>
        <time>2020-05-16T15:31:12Z</time>
      </trkpt>
      <trkpt lat="48.93956" lon="1.99895">
        <ele>24</ele>
        <time>2020-05-16T15:31:20Z</time>
      </trkpt>
      <trkpt lat="48.93947" lon="1.99897">
        <ele>24</ele>
        <time>2020-05-16T15:31:27Z</time>
      </trkpt>
      <trkpt lat="48.93938" lon="1.99898">
        <ele>23</ele>
        <time>2020-05-16T15:31:34Z</time>
      </trkpt>
    </trkseg>
  </trk>
</gpx>